<?xml version='1.0' encoding='UTF-8'?><gpx version="1.1" creator="JPX - https://github.com/jenetics/jpx" xmlns="http://www.topografix.com/GPX/1/1"><trk><trkseg><trkpt lat="45.4750144" lon="11.2492794"><ele>170.0</ele><time>2026-03-29T09:02:48.088Z</time></trkpt><trkpt lat="45.4749753" lon="11.249209"><ele>170.0</ele><time>2026-03-29T09:02:52.087Z</time></trkpt><trkpt lat="45.4749208" lon="11.2491456"><ele>170.0</ele><time>2026-03-29T09:02:55.084Z</time></trkpt><trkpt lat="45.4748716" lon="11.2490614"><ele>170.0</ele><time>2026-03-29T09:02:59.086Z</time></trkpt><trkpt lat="45.4748136" lon="11.2489781"><ele>170.0</ele><time>2026-03-29T09:03:03.092Z</time></trkpt><trkpt lat="45.4747612" lon="11.248908"><ele>170.0</ele><time>2026-03-29T09:03:06.111Z</time></trkpt><trkpt lat="45.4747149" lon="11.2488052"><ele>171.5</ele><time>2026-03-29T09:03:10.09Z</time></trkpt><trkpt lat="45.4746632" lon="11.2487174"><ele>173.0</ele><time>2026-03-29T09:03:13.085Z</time></trkpt><trkpt lat="45.4746022" lon="11.2486347"><ele>174.5</ele><time>2026-03-29T09:03:16.094Z</time></trkpt><trkpt lat="45.4745322" lon="11.2485785"><ele>176.0</ele><time>2026-03-29T09:03:19.156Z</time></trkpt><trkpt lat="45.4744661" lon="11.2485413"><ele>177.5</ele><time>2026-03-29T09:03:22.135Z</time></trkpt><trkpt lat="45.4744009" lon="11.2484927"><ele>179.0</ele><time>2026-03-29T09:03:25.084Z</time></trkpt><trkpt lat="45.4743227" lon="11.2484474"><ele>179.0</ele><time>2026-03-29T09:03:28.102Z</time></trkpt><trkpt lat="45.4742536" lon="11.2484001"><ele>179.0</ele><time>2026-03-29T09:03:30.09Z</time></trkpt><trkpt lat="45.4741884" lon="11.2483515"><ele>179.0</ele><time>2026-03-29T09:03:32.089Z</time></trkpt><trkpt lat="45.4741097" lon="11.2483317"><ele>179.0</ele><time>2026-03-29T09:03:34.087Z</time></trkpt><trkpt lat="45.4740276" lon="11.2483362"><ele>179.0</ele><time>2026-03-29T09:03:36.132Z</time></trkpt><trkpt lat="45.4739649" lon="11.2483495"><ele>179.0</ele><time>2026-03-29T09:03:38.095Z</time></trkpt><trkpt lat="45.4738859" lon="11.248347"><ele>179.0</ele><time>2026-03-29T09:03:41.138Z</time></trkpt><trkpt lat="45.4737999" lon="11.2483326"><ele>179.0</ele><time>2026-03-29T09:03:43.103Z</time></trkpt><trkpt lat="45.4737214" lon="11.24833"><ele>179.0</ele><time>2026-03-29T09:03:45.078Z</time></trkpt><trkpt lat="45.473647" lon="11.2483017"><ele>179.0</ele><time>2026-03-29T09:03:47.092Z</time></trkpt><trkpt lat="45.4735818" lon="11.2482793"><ele>179.0</ele><time>2026-03-29T09:03:49.12Z</time></trkpt><trkpt lat="45.4735101" lon="11.2482598"><ele>179.0</ele><time>2026-03-29T09:03:51.124Z</time></trkpt><trkpt lat="45.4734202" lon="11.2482338"><ele>178.5</ele><time>2026-03-29T09:03:53.09Z</time></trkpt><trkpt lat="45.4733427" lon="11.248213"><ele>178.0</ele><time>2026-03-29T09:03:55.089Z</time></trkpt><trkpt lat="45.4732689" lon="11.2481534"><ele>177.5</ele><time>2026-03-29T09:03:58.118Z</time></trkpt><trkpt lat="45.4732377" lon="11.2480669"><ele>177.0</ele><time>2026-03-29T09:04:02.159Z</time></trkpt><trkpt lat="45.4731639" lon="11.2481022"><ele>176.5</ele><time>2026-03-29T09:04:07.093Z</time></trkpt><trkpt lat="45.4730958" lon="11.2481389"><ele>176.0</ele><time>2026-03-29T09:04:09.096Z</time></trkpt><trkpt lat="45.4730186" lon="11.248138"><ele>176.0</ele><time>2026-03-29T09:04:11.124Z</time></trkpt><trkpt lat="45.4729307" lon="11.2481384"><ele>176.0</ele><time>2026-03-29T09:04:13.108Z</time></trkpt><trkpt lat="45.4728473" lon="11.2481646"><ele>176.0</ele><time>2026-03-29T09:04:15.076Z</time></trkpt><trkpt lat="45.4727351" lon="11.2481905"><ele>176.0</ele><time>2026-03-29T09:04:17.088Z</time></trkpt><trkpt lat="45.4726565" lon="11.2481968"><ele>176.0</ele><time>2026-03-29T09:04:19.11Z</time></trkpt><trkpt lat="45.4725878" lon="11.2481961"><ele>176.0</ele><time>2026-03-29T09:04:22.083Z</time></trkpt><trkpt lat="45.4725001" lon="11.2482048"><ele>176.0</ele><time>2026-03-29T09:04:25.091Z</time></trkpt><trkpt lat="45.4724005" lon="11.2482319"><ele>176.0</ele><time>2026-03-29T09:04:28.087Z</time></trkpt><trkpt lat="45.4723327" lon="11.2482521"><ele>176.0</ele><time>2026-03-29T09:04:31.133Z</time></trkpt><trkpt lat="45.4722549" lon="11.24824"><ele>176.0</ele><time>2026-03-29T09:04:34.094Z</time></trkpt><trkpt lat="45.4721859" lon="11.248232"><ele>176.0</ele><time>2026-03-29T09:04:36.069Z</time></trkpt><trkpt lat="45.4721361" lon="11.2481567"><ele>176.0</ele><time>2026-03-29T09:04:40.088Z</time></trkpt><trkpt lat="45.4720745" lon="11.2480943"><ele>178.28571428571428</ele><time>2026-03-29T09:04:43.1Z</time></trkpt><trkpt lat="45.4720214" lon="11.2481557"><ele>180.57142857142856</ele><time>2026-03-29T09:04:47.088Z</time></trkpt><trkpt lat="45.4719613" lon="11.2482101"><ele>182.85714285714283</ele><time>2026-03-29T09:05:31.076Z</time></trkpt><trkpt lat="45.4720108" lon="11.2481259"><ele>185.14285714285714</ele><time>2026-03-29T09:05:47.077Z</time></trkpt><trkpt lat="45.4720834" lon="11.2480878"><ele>187.42857142857142</ele><time>2026-03-29T09:05:50.079Z</time></trkpt><trkpt lat="45.4721429" lon="11.2480569"><ele>189.7142857142857</ele><time>2026-03-29T09:05:53.081Z</time></trkpt><trkpt lat="45.4722178" lon="11.2480654"><ele>192.0</ele><time>2026-03-29T09:05:58.079Z</time></trkpt><trkpt lat="45.472285" lon="11.2480523"><ele>193.83333333333334</ele><time>2026-03-29T09:06:02.078Z</time></trkpt><trkpt lat="45.4723759" lon="11.2481355"><ele>195.66666666666669</ele><time>2026-03-29T09:06:08.082Z</time></trkpt><trkpt lat="45.4724462" lon="11.2481853"><ele>197.5</ele><time>2026-03-29T09:06:09.082Z</time></trkpt><trkpt lat="45.4723788" lon="11.2482001"><ele>199.33333333333334</ele><time>2026-03-29T09:06:13.075Z</time></trkpt><trkpt lat="45.4723047" lon="11.2481831"><ele>201.16666666666669</ele><time>2026-03-29T09:06:15.077Z</time></trkpt><trkpt lat="45.4722224" lon="11.2481868"><ele>203.0</ele><time>2026-03-29T09:06:18.078Z</time></trkpt><trkpt lat="45.4721602" lon="11.2480893"><ele>203.00000000000003</ele><time>2026-03-29T09:06:20.075Z</time></trkpt><trkpt lat="45.4721072" lon="11.2480174"><ele>203.0</ele><time>2026-03-29T09:06:22.08Z</time></trkpt><trkpt lat="45.472035" lon="11.2480495"><ele>203.0</ele><time>2026-03-29T09:07:02.117Z</time></trkpt><trkpt lat="45.4721101" lon="11.2480083"><ele>203.0</ele><time>2026-03-29T09:07:06.093Z</time></trkpt><trkpt lat="45.4721966" lon="11.2479984"><ele>203.00000000000003</ele><time>2026-03-29T09:07:09.117Z</time></trkpt><trkpt lat="45.4722838" lon="11.2479797"><ele>203.0</ele><time>2026-03-29T09:07:12.097Z</time></trkpt><trkpt lat="45.4723464" lon="11.2479611"><ele>203.00000000000003</ele><time>2026-03-29T09:07:14.089Z</time></trkpt><trkpt lat="45.4724368" lon="11.2479242"><ele>203.0</ele><time>2026-03-29T09:07:17.075Z</time></trkpt><trkpt lat="45.4725207" lon="11.2479089"><ele>203.0</ele><time>2026-03-29T09:07:20.088Z</time></trkpt><trkpt lat="45.4726039" lon="11.2479208"><ele>203.0</ele><time>2026-03-29T09:07:23.142Z</time></trkpt><trkpt lat="45.4726879" lon="11.2479321"><ele>203.00000000000003</ele><time>2026-03-29T09:07:26.087Z</time></trkpt><trkpt lat="45.4727797" lon="11.247919"><ele>203.0</ele><time>2026-03-29T09:07:29.134Z</time></trkpt><trkpt lat="45.4728666" lon="11.2478908"><ele>203.0</ele><time>2026-03-29T09:07:32.167Z</time></trkpt><trkpt lat="45.472937" lon="11.2478749"><ele>203.0</ele><time>2026-03-29T09:07:35.086Z</time></trkpt><trkpt lat="45.4729992" lon="11.2478382"><ele>203.0</ele><time>2026-03-29T09:07:38.079Z</time></trkpt><trkpt lat="45.4730746" lon="11.24781"><ele>203.0</ele><time>2026-03-29T09:07:41.087Z</time></trkpt><trkpt lat="45.4731468" lon="11.2478254"><ele>203.0</ele><time>2026-03-29T09:07:44.121Z</time></trkpt><trkpt lat="45.4732141" lon="11.2478673"><ele>203.0</ele><time>2026-03-29T09:07:49.141Z</time></trkpt><trkpt lat="45.4732738" lon="11.2478181"><ele>203.0</ele><time>2026-03-29T09:07:54.093Z</time></trkpt><trkpt lat="45.4732706" lon="11.24772"><ele>203.00000000000003</ele><time>2026-03-29T09:07:58.092Z</time></trkpt><trkpt lat="45.4733486" lon="11.2476999"><ele>203.0</ele><time>2026-03-29T09:08:46.123Z</time></trkpt><trkpt lat="45.4734277" lon="11.2476912"><ele>203.0</ele><time>2026-03-29T09:08:49.087Z</time></trkpt><trkpt lat="45.4734987" lon="11.2476923"><ele>203.0</ele><time>2026-03-29T09:08:51.088Z</time></trkpt><trkpt lat="45.4736079" lon="11.2477259"><ele>203.00000000000003</ele><time>2026-03-29T09:08:53.077Z</time></trkpt><trkpt lat="45.4736712" lon="11.247726"><ele>203.0</ele><time>2026-03-29T09:08:57.118Z</time></trkpt><trkpt lat="45.4737452" lon="11.2477576"><ele>203.00000000000003</ele><time>2026-03-29T09:09:12.09Z</time></trkpt><trkpt lat="45.4738189" lon="11.2477669"><ele>203.0</ele><time>2026-03-29T09:09:16.086Z</time></trkpt><trkpt lat="45.4738896" lon="11.2477616"><ele>203.0</ele><time>2026-03-29T09:09:19.134Z</time></trkpt><trkpt lat="45.4739713" lon="11.2478004"><ele>203.0</ele><time>2026-03-29T09:09:21.13Z</time></trkpt><trkpt lat="45.4740526" lon="11.2478054"><ele>203.00000000000003</ele><time>2026-03-29T09:09:24.087Z</time></trkpt><trkpt lat="45.474119" lon="11.2477862"><ele>203.0</ele><time>2026-03-29T09:09:28.15Z</time></trkpt><trkpt lat="45.4741952" lon="11.2477696"><ele>203.00000000000003</ele><time>2026-03-29T09:09:33.086Z</time></trkpt><trkpt lat="45.4742751" lon="11.2477701"><ele>203.0</ele><time>2026-03-29T09:11:00.12Z</time></trkpt><trkpt lat="45.4743559" lon="11.2478038"><ele>203.0</ele><time>2026-03-29T09:11:02.09Z</time></trkpt><trkpt lat="45.4744363" lon="11.2478747"><ele>203.0</ele><time>2026-03-29T09:11:04.082Z</time></trkpt><trkpt lat="45.4744996" lon="11.247945"><ele>203.00000000000003</ele><time>2026-03-29T09:11:06.138Z</time></trkpt><trkpt lat="45.474547" lon="11.2480056"><ele>203.0</ele><time>2026-03-29T09:11:08.128Z</time></trkpt><trkpt lat="45.4746062" lon="11.2480698"><ele>203.00000000000003</ele><time>2026-03-29T09:11:11.087Z</time></trkpt><trkpt lat="45.474666" lon="11.2481113"><ele>203.0</ele><time>2026-03-29T09:11:13.091Z</time></trkpt><trkpt lat="45.4747409" lon="11.2481208"><ele>203.0</ele><time>2026-03-29T09:11:16.133Z</time></trkpt><trkpt lat="45.4747243" lon="11.2480093"><ele>203.0</ele><time>2026-03-29T09:11:21.144Z</time></trkpt><trkpt lat="45.4746847" lon="11.2479268"><ele>203.00000000000003</ele><time>2026-03-29T09:11:24.094Z</time></trkpt><trkpt lat="45.4746401" lon="11.2478407"><ele>203.0</ele><time>2026-03-29T09:11:27.091Z</time></trkpt><trkpt lat="45.4745872" lon="11.2477428"><ele>203.00000000000003</ele><time>2026-03-29T09:11:30.127Z</time></trkpt><trkpt lat="45.4745425" lon="11.2476733"><ele>203.0</ele><time>2026-03-29T09:11:32.083Z</time></trkpt><trkpt lat="45.4744911" lon="11.2476053"><ele>203.0</ele><time>2026-03-29T09:11:34.118Z</time></trkpt><trkpt lat="45.4744412" lon="11.24755"><ele>203.0</ele><time>2026-03-29T09:11:36.079Z</time></trkpt><trkpt lat="45.4743608" lon="11.2474893"><ele>203.00000000000003</ele><time>2026-03-29T09:11:39.102Z</time></trkpt><trkpt lat="45.4742728" lon="11.2474586"><ele>203.0</ele><time>2026-03-29T09:11:42.076Z</time></trkpt><trkpt lat="45.4741941" lon="11.2473872"><ele>203.0</ele><time>2026-03-29T09:11:45.084Z</time></trkpt><trkpt lat="45.4741109" lon="11.2473209"><ele>203.0</ele><time>2026-03-29T09:11:48.12Z</time></trkpt><trkpt lat="45.4740534" lon="11.2472789"><ele>203.0</ele><time>2026-03-29T09:11:50.089Z</time></trkpt><trkpt lat="45.473996" lon="11.2472416"><ele>203.0</ele><time>2026-03-29T09:11:52.088Z</time></trkpt><trkpt lat="45.4739333" lon="11.2472084"><ele>203.0</ele><time>2026-03-29T09:11:54.082Z</time></trkpt><trkpt lat="45.4738718" lon="11.2471751"><ele>203.0</ele><time>2026-03-29T09:11:56.083Z</time></trkpt><trkpt lat="45.4738069" lon="11.2471401"><ele>203.0</ele><time>2026-03-29T09:11:58.112Z</time></trkpt><trkpt lat="45.4737474" lon="11.2471102"><ele>206.33333333333334</ele><time>2026-03-29T09:12:00.082Z</time></trkpt><trkpt lat="45.4736609" lon="11.2470702"><ele>209.66666666666669</ele><time>2026-03-29T09:12:03.085Z</time></trkpt><trkpt lat="45.4735756" lon="11.2470326"><ele>213.0</ele><time>2026-03-29T09:12:06.085Z</time></trkpt><trkpt lat="45.473479" lon="11.2470014"><ele>216.33333333333331</ele><time>2026-03-29T09:12:09.084Z</time></trkpt><trkpt lat="45.4733922" lon="11.2469882"><ele>219.66666666666666</ele><time>2026-03-29T09:12:11.134Z</time></trkpt><trkpt lat="45.4733159" lon="11.2469744"><ele>223.0</ele><time>2026-03-29T09:12:13.133Z</time></trkpt><trkpt lat="45.4732441" lon="11.2469551"><ele>222.99999999999997</ele><time>2026-03-29T09:12:15.094Z</time></trkpt><trkpt lat="45.4731854" lon="11.2468958"><ele>223.0</ele><time>2026-03-29T09:12:17.091Z</time></trkpt><trkpt lat="45.4731917" lon="11.2467792"><ele>223.0</ele><time>2026-03-29T09:12:20.084Z</time></trkpt><trkpt lat="45.4732705" lon="11.2468005"><ele>223.0</ele><time>2026-03-29T09:12:23.149Z</time></trkpt><trkpt lat="45.4733484" lon="11.2468202"><ele>222.99999999999997</ele><time>2026-03-29T09:12:26.095Z</time></trkpt><trkpt lat="45.4734401" lon="11.2468237"><ele>223.0</ele><time>2026-03-29T09:12:29.086Z</time></trkpt><trkpt lat="45.4735052" lon="11.2468221"><ele>223.0</ele><time>2026-03-29T09:12:31.082Z</time></trkpt><trkpt lat="45.473572" lon="11.2468265"><ele>223.0</ele><time>2026-03-29T09:12:33.091Z</time></trkpt><trkpt lat="45.4736407" lon="11.246819"><ele>223.0</ele><time>2026-03-29T09:12:35.099Z</time></trkpt><trkpt lat="45.4737158" lon="11.2467931"><ele>223.0</ele><time>2026-03-29T09:12:37.157Z</time></trkpt><trkpt lat="45.4737862" lon="11.2467725"><ele>223.0</ele><time>2026-03-29T09:12:39.093Z</time></trkpt><trkpt lat="45.4738484" lon="11.2467317"><ele>223.0</ele><time>2026-03-29T09:12:41.093Z</time></trkpt><trkpt lat="45.4738883" lon="11.2466445"><ele>223.0</ele><time>2026-03-29T09:12:43.081Z</time></trkpt><trkpt lat="45.4738807" lon="11.2465346"><ele>222.83333333333331</ele><time>2026-03-29T09:12:45.089Z</time></trkpt><trkpt lat="45.4738609" lon="11.2464198"><ele>222.66666666666666</ele><time>2026-03-29T09:12:47.138Z</time></trkpt><trkpt lat="45.4738401" lon="11.2463158"><ele>222.5</ele><time>2026-03-29T09:12:49.124Z</time></trkpt><trkpt lat="45.4738254" lon="11.2462075"><ele>222.33333333333331</ele><time>2026-03-29T09:12:51.094Z</time></trkpt><trkpt lat="45.4738067" lon="11.2461036"><ele>222.16666666666666</ele><time>2026-03-29T09:12:53.099Z</time></trkpt><trkpt lat="45.4737774" lon="11.2459562"><ele>222.0</ele><time>2026-03-29T09:12:56.086Z</time></trkpt><trkpt lat="45.4737498" lon="11.245863"><ele>223.28571428571428</ele><time>2026-03-29T09:12:58.084Z</time></trkpt><trkpt lat="45.4737209" lon="11.2457736"><ele>224.57142857142858</ele><time>2026-03-29T09:13:00.171Z</time></trkpt><trkpt lat="45.4736908" lon="11.2456842"><ele>225.85714285714286</ele><time>2026-03-29T09:13:02.122Z</time></trkpt><trkpt lat="45.4736504" lon="11.2456002"><ele>227.14285714285714</ele><time>2026-03-29T09:13:04.111Z</time></trkpt><trkpt lat="45.4736048" lon="11.2455189"><ele>228.42857142857144</ele><time>2026-03-29T09:13:06.091Z</time></trkpt><trkpt lat="45.4735566" lon="11.2454449"><ele>229.71428571428572</ele><time>2026-03-29T09:13:08.114Z</time></trkpt><trkpt lat="45.4735045" lon="11.2453682"><ele>231.0</ele><time>2026-03-29T09:13:10.094Z</time></trkpt><trkpt lat="45.4734535" lon="11.2452951"><ele>231.85714285714286</ele><time>2026-03-29T09:13:12.087Z</time></trkpt><trkpt lat="45.4734029" lon="11.2452287"><ele>232.71428571428572</ele><time>2026-03-29T09:13:14.13Z</time></trkpt><trkpt lat="45.4733575" lon="11.2451594"><ele>233.57142857142856</ele><time>2026-03-29T09:13:16.08Z</time></trkpt><trkpt lat="45.473312" lon="11.2450875"><ele>234.42857142857142</ele><time>2026-03-29T09:13:18.088Z</time></trkpt><trkpt lat="45.4732634" lon="11.2450204"><ele>235.28571428571428</ele><time>2026-03-29T09:13:20.087Z</time></trkpt><trkpt lat="45.4732185" lon="11.2449545"><ele>236.1428571428571</ele><time>2026-03-29T09:13:22.084Z</time></trkpt><trkpt lat="45.4731521" lon="11.2448658"><ele>236.99999999999997</ele><time>2026-03-29T09:13:25.143Z</time></trkpt><trkpt lat="45.4731119" lon="11.2447939"><ele>238.0</ele><time>2026-03-29T09:13:27.133Z</time></trkpt><trkpt lat="45.4730655" lon="11.2446887"><ele>239.0</ele><time>2026-03-29T09:13:30.086Z</time></trkpt><trkpt lat="45.4729992" lon="11.2446283"><ele>240.0</ele><time>2026-03-29T09:13:33.143Z</time></trkpt><trkpt lat="45.4729109" lon="11.2446325"><ele>241.0</ele><time>2026-03-29T09:13:37.098Z</time></trkpt><trkpt lat="45.4729318" lon="11.2444869"><ele>242.0</ele><time>2026-03-29T09:14:13.098Z</time></trkpt><trkpt lat="45.4729438" lon="11.2443917"><ele>243.0</ele><time>2026-03-29T09:14:15.091Z</time></trkpt><trkpt lat="45.4729576" lon="11.2442934"><ele>243.0</ele><time>2026-03-29T09:14:17.09Z</time></trkpt><trkpt lat="45.4729744" lon="11.2441902"><ele>243.0</ele><time>2026-03-29T09:14:19.091Z</time></trkpt><trkpt lat="45.4729971" lon="11.2440911"><ele>243.0</ele><time>2026-03-29T09:14:21.087Z</time></trkpt><trkpt lat="45.4729888" lon="11.2439949"><ele>243.0</ele><time>2026-03-29T09:14:23.087Z</time></trkpt><trkpt lat="45.4729167" lon="11.2440008"><ele>243.0</ele><time>2026-03-29T09:14:26.111Z</time></trkpt><trkpt lat="45.4728947" lon="11.2441075"><ele>243.0</ele><time>2026-03-29T09:14:28.104Z</time></trkpt><trkpt lat="45.4728865" lon="11.2442112"><ele>243.0</ele><time>2026-03-29T09:14:30.096Z</time></trkpt><trkpt lat="45.4728539" lon="11.2443063"><ele>245.16666666666666</ele><time>2026-03-29T09:14:32.093Z</time></trkpt><trkpt lat="45.4728034" lon="11.2443869"><ele>247.33333333333331</ele><time>2026-03-29T09:14:34.09Z</time></trkpt><trkpt lat="45.4727225" lon="11.2444159"><ele>249.5</ele><time>2026-03-29T09:14:36.089Z</time></trkpt><trkpt lat="45.4726455" lon="11.2444271"><ele>251.66666666666666</ele><time>2026-03-29T09:14:38.136Z</time></trkpt><trkpt lat="45.4725771" lon="11.2443999"><ele>253.83333333333331</ele><time>2026-03-29T09:14:40.105Z</time></trkpt><trkpt lat="45.4725105" lon="11.2443576"><ele>256.0</ele><time>2026-03-29T09:14:42.09Z</time></trkpt><trkpt lat="45.4724453" lon="11.2443155"><ele>256.0</ele><time>2026-03-29T09:14:44.083Z</time></trkpt><trkpt lat="45.4723893" lon="11.2442581"><ele>255.99999999999997</ele><time>2026-03-29T09:14:46.075Z</time></trkpt><trkpt lat="45.4723414" lon="11.2441889"><ele>256.0</ele><time>2026-03-29T09:14:48.091Z</time></trkpt><trkpt lat="45.4723121" lon="11.2440995"><ele>256.0</ele><time>2026-03-29T09:14:50.082Z</time></trkpt><trkpt lat="45.472292" lon="11.2440064"><ele>255.99999999999997</ele><time>2026-03-29T09:14:52.086Z</time></trkpt><trkpt lat="45.4722814" lon="11.2439107"><ele>256.0</ele><time>2026-03-29T09:14:54.083Z</time></trkpt><trkpt lat="45.4722749" lon="11.2438104"><ele>256.0</ele><time>2026-03-29T09:14:56.092Z</time></trkpt><trkpt lat="45.4722603" lon="11.2437071"><ele>257.0</ele><time>2026-03-29T09:14:58.085Z</time></trkpt><trkpt lat="45.4722463" lon="11.2435974"><ele>258.0</ele><time>2026-03-29T09:15:00.08Z</time></trkpt><trkpt lat="45.4722344" lon="11.2434902"><ele>259.0</ele><time>2026-03-29T09:15:02.144Z</time></trkpt><trkpt lat="45.4722269" lon="11.243389"><ele>260.0</ele><time>2026-03-29T09:15:04.104Z</time></trkpt><trkpt lat="45.472218" lon="11.2432808"><ele>261.0</ele><time>2026-03-29T09:15:06.077Z</time></trkpt><trkpt lat="45.4722187" lon="11.2431729"><ele>262.0</ele><time>2026-03-29T09:15:08.091Z</time></trkpt><trkpt lat="45.4722301" lon="11.2430613"><ele>263.4</ele><time>2026-03-29T09:15:10.078Z</time></trkpt><trkpt lat="45.4722359" lon="11.2429304"><ele>264.79999999999995</ele><time>2026-03-29T09:15:12.089Z</time></trkpt><trkpt lat="45.4722474" lon="11.242797"><ele>266.2</ele><time>2026-03-29T09:15:14.11Z</time></trkpt><trkpt lat="45.4722635" lon="11.2426696"><ele>267.59999999999997</ele><time>2026-03-29T09:15:16.096Z</time></trkpt><trkpt lat="45.4722837" lon="11.2425445"><ele>269.0</ele><time>2026-03-29T09:15:18.092Z</time></trkpt><trkpt lat="45.4722932" lon="11.2424241"><ele>269.0</ele><time>2026-03-29T09:15:20.088Z</time></trkpt><trkpt lat="45.4723006" lon="11.2423031"><ele>269.0</ele><time>2026-03-29T09:15:22.088Z</time></trkpt><trkpt lat="45.4723358" lon="11.2422186"><ele>269.0</ele><time>2026-03-29T09:15:24.088Z</time></trkpt><trkpt lat="45.4724118" lon="11.2422209"><ele>269.0</ele><time>2026-03-29T09:15:26.11Z</time></trkpt><trkpt lat="45.4724829" lon="11.2422773"><ele>269.0</ele><time>2026-03-29T09:15:28.118Z</time></trkpt><trkpt lat="45.4725626" lon="11.2423464"><ele>269.0</ele><time>2026-03-29T09:15:30.092Z</time></trkpt><trkpt lat="45.472635" lon="11.2423917"><ele>269.0</ele><time>2026-03-29T09:15:32.091Z</time></trkpt><trkpt lat="45.4727177" lon="11.2424177"><ele>269.0</ele><time>2026-03-29T09:15:34.09Z</time></trkpt><trkpt lat="45.4728075" lon="11.2424217"><ele>269.0</ele><time>2026-03-29T09:15:36.091Z</time></trkpt><trkpt lat="45.4728911" lon="11.2423994"><ele>269.0</ele><time>2026-03-29T09:15:38.148Z</time></trkpt><trkpt lat="45.472971" lon="11.2423306"><ele>269.0</ele><time>2026-03-29T09:15:40.082Z</time></trkpt><trkpt lat="45.4730229" lon="11.2422278"><ele>269.0</ele><time>2026-03-29T09:15:42.083Z</time></trkpt><trkpt lat="45.4730469" lon="11.2421102"><ele>269.33333333333337</ele><time>2026-03-29T09:15:44.084Z</time></trkpt><trkpt lat="45.4730581" lon="11.2419825"><ele>269.6666666666667</ele><time>2026-03-29T09:15:46.086Z</time></trkpt><trkpt lat="45.4730585" lon="11.2418689"><ele>270.0</ele><time>2026-03-29T09:15:48.104Z</time></trkpt><trkpt lat="45.4730628" lon="11.241761"><ele>270.3333333333333</ele><time>2026-03-29T09:15:50.087Z</time></trkpt><trkpt lat="45.4730906" lon="11.2416638"><ele>270.66666666666663</ele><time>2026-03-29T09:15:52.087Z</time></trkpt><trkpt lat="45.4731538" lon="11.241599"><ele>271.0</ele><time>2026-03-29T09:15:54.097Z</time></trkpt><trkpt lat="45.4732286" lon="11.2415463"><ele>271.0</ele><time>2026-03-29T09:15:56.097Z</time></trkpt><trkpt lat="45.4732798" lon="11.2414684"><ele>271.0</ele><time>2026-03-29T09:15:58.091Z</time></trkpt><trkpt lat="45.4733133" lon="11.2413847"><ele>271.0</ele><time>2026-03-29T09:16:00.094Z</time></trkpt><trkpt lat="45.4733313" lon="11.2412951"><ele>271.0</ele><time>2026-03-29T09:16:02.099Z</time></trkpt><trkpt lat="45.4733346" lon="11.2412003"><ele>271.0</ele><time>2026-03-29T09:16:04.095Z</time></trkpt><trkpt lat="45.4733522" lon="11.2411045"><ele>271.0</ele><time>2026-03-29T09:16:06.097Z</time></trkpt><trkpt lat="45.4733945" lon="11.2410293"><ele>271.0</ele><time>2026-03-29T09:16:08.099Z</time></trkpt><trkpt lat="45.4734591" lon="11.2409896"><ele>273.0</ele><time>2026-03-29T09:16:10.092Z</time></trkpt><trkpt lat="45.4735309" lon="11.2409751"><ele>275.0</ele><time>2026-03-29T09:16:12.098Z</time></trkpt><trkpt lat="45.4735992" lon="11.240957"><ele>277.0</ele><time>2026-03-29T09:16:14.103Z</time></trkpt><trkpt lat="45.4736563" lon="11.2408913"><ele>279.0</ele><time>2026-03-29T09:16:16.104Z</time></trkpt><trkpt lat="45.4736704" lon="11.2407743"><ele>281.0</ele><time>2026-03-29T09:16:18.095Z</time></trkpt><trkpt lat="45.4736307" lon="11.2406262"><ele>283.0</ele><time>2026-03-29T09:16:21.096Z</time></trkpt><trkpt lat="45.473602" lon="11.2405301"><ele>283.66666666666663</ele><time>2026-03-29T09:16:23.121Z</time></trkpt><trkpt lat="45.4735758" lon="11.2404277"><ele>284.3333333333333</ele><time>2026-03-29T09:16:25.123Z</time></trkpt><trkpt lat="45.4735425" lon="11.2403253"><ele>285.0</ele><time>2026-03-29T09:16:27.098Z</time></trkpt><trkpt lat="45.4735142" lon="11.2402202"><ele>285.6666666666667</ele><time>2026-03-29T09:16:29.134Z</time></trkpt><trkpt lat="45.473489" lon="11.2401087"><ele>286.33333333333337</ele><time>2026-03-29T09:16:31.092Z</time></trkpt><trkpt lat="45.473459" lon="11.2400113"><ele>287.0</ele><time>2026-03-29T09:16:33.129Z</time></trkpt><trkpt lat="45.4734296" lon="11.2399057"><ele>287.0</ele><time>2026-03-29T09:16:35.172Z</time></trkpt><trkpt lat="45.4734075" lon="11.2398134"><ele>287.0</ele><time>2026-03-29T09:16:37.097Z</time></trkpt><trkpt lat="45.4733817" lon="11.2397169"><ele>287.0</ele><time>2026-03-29T09:16:39.136Z</time></trkpt><trkpt lat="45.473371" lon="11.2396099"><ele>287.0</ele><time>2026-03-29T09:16:41.103Z</time></trkpt><trkpt lat="45.4733694" lon="11.2395039"><ele>287.0</ele><time>2026-03-29T09:16:43.102Z</time></trkpt><trkpt lat="45.4733714" lon="11.2394109"><ele>287.0</ele><time>2026-03-29T09:16:45.142Z</time></trkpt><trkpt lat="45.4733654" lon="11.2392756"><ele>287.6666666666667</ele><time>2026-03-29T09:16:48.098Z</time></trkpt><trkpt lat="45.473365" lon="11.2391855"><ele>288.33333333333337</ele><time>2026-03-29T09:16:50.155Z</time></trkpt><trkpt lat="45.473366" lon="11.2390951"><ele>289.0</ele><time>2026-03-29T09:16:52.077Z</time></trkpt><trkpt lat="45.4733558" lon="11.2389651"><ele>289.6666666666667</ele><time>2026-03-29T09:16:55.096Z</time></trkpt><trkpt lat="45.4733579" lon="11.2388361"><ele>290.3333333333333</ele><time>2026-03-29T09:16:58.08Z</time></trkpt><trkpt lat="45.473351" lon="11.2387122"><ele>291.0</ele><time>2026-03-29T09:17:01.083Z</time></trkpt><trkpt lat="45.4733712" lon="11.238582"><ele>292.40000000000003</ele><time>2026-03-29T09:17:44.079Z</time></trkpt><trkpt lat="45.4734128" lon="11.2384956"><ele>293.8</ele><time>2026-03-29T09:17:47.082Z</time></trkpt><trkpt lat="45.4735357" lon="11.2384778"><ele>295.20000000000005</ele><time>2026-03-29T09:17:50.162Z</time></trkpt><trkpt lat="45.4736328" lon="11.2384651"><ele>296.6</ele><time>2026-03-29T09:17:52.079Z</time></trkpt><trkpt lat="45.4736973" lon="11.2384362"><ele>298.0</ele><time>2026-03-29T09:17:53.091Z</time></trkpt><trkpt lat="45.473784" lon="11.2383489"><ele>298.6</ele><time>2026-03-29T09:17:55.088Z</time></trkpt><trkpt lat="45.4738616" lon="11.2383008"><ele>299.20000000000005</ele><time>2026-03-29T09:17:57.096Z</time></trkpt><trkpt lat="45.4739611" lon="11.2382854"><ele>299.8</ele><time>2026-03-29T09:17:59.075Z</time></trkpt><trkpt lat="45.4740538" lon="11.2382687"><ele>300.40000000000003</ele><time>2026-03-29T09:18:01.09Z</time></trkpt><trkpt lat="45.4741598" lon="11.2382434"><ele>301.0</ele><time>2026-03-29T09:18:03.146Z</time></trkpt><trkpt lat="45.4742798" lon="11.2382247"><ele>301.0</ele><time>2026-03-29T09:18:05.096Z</time></trkpt><trkpt lat="45.4743369" lon="11.2381849"><ele>301.0</ele><time>2026-03-29T09:18:06.095Z</time></trkpt><trkpt lat="45.4744081" lon="11.2381563"><ele>301.0</ele><time>2026-03-29T09:18:07.086Z</time></trkpt><trkpt lat="45.4745046" lon="11.2381334"><ele>301.0</ele><time>2026-03-29T09:18:09.09Z</time></trkpt><trkpt lat="45.4745673" lon="11.2381488"><ele>301.0</ele><time>2026-03-29T09:18:10.088Z</time></trkpt><trkpt lat="45.4746904" lon="11.2381062"><ele>301.0</ele><time>2026-03-29T09:18:12.137Z</time></trkpt><trkpt lat="45.4747887" lon="11.2380913"><ele>304.2</ele><time>2026-03-29T09:18:14.094Z</time></trkpt><trkpt lat="45.4748844" lon="11.2380439"><ele>307.40000000000003</ele><time>2026-03-29T09:18:16.123Z</time></trkpt><trkpt lat="45.4749771" lon="11.2379276"><ele>310.6</ele><time>2026-03-29T09:18:19.086Z</time></trkpt><trkpt lat="45.4749772" lon="11.2378291"><ele>313.8</ele><time>2026-03-29T09:18:21.085Z</time></trkpt><trkpt lat="45.474902" lon="11.2376769"><ele>317.0</ele><time>2026-03-29T09:18:23.079Z</time></trkpt><trkpt lat="45.4748655" lon="11.2375607"><ele>317.0</ele><time>2026-03-29T09:18:26.088Z</time></trkpt><trkpt lat="45.4748309" lon="11.2374639"><ele>317.0</ele><time>2026-03-29T09:18:28.087Z</time></trkpt><trkpt lat="45.4748194" lon="11.2373607"><ele>317.0</ele><time>2026-03-29T09:18:30.078Z</time></trkpt><trkpt lat="45.4748877" lon="11.2373158"><ele>317.0</ele><time>2026-03-29T09:18:32.083Z</time></trkpt><trkpt lat="45.4749468" lon="11.2373634"><ele>317.0</ele><time>2026-03-29T09:18:34.087Z</time></trkpt><trkpt lat="45.4750167" lon="11.2374181"><ele>317.0</ele><time>2026-03-29T09:18:36.083Z</time></trkpt><trkpt lat="45.4750944" lon="11.2374624"><ele>317.0</ele><time>2026-03-29T09:18:38.099Z</time></trkpt><trkpt lat="45.4751771" lon="11.2375007"><ele>317.0</ele><time>2026-03-29T09:18:40.087Z</time></trkpt><trkpt lat="45.4752546" lon="11.2375313"><ele>317.0</ele><time>2026-03-29T09:18:42.09Z</time></trkpt><trkpt lat="45.4753478" lon="11.2375522"><ele>317.0</ele><time>2026-03-29T09:18:44.114Z</time></trkpt><trkpt lat="45.4754427" lon="11.2375926"><ele>317.0</ele><time>2026-03-29T09:18:46.082Z</time></trkpt><trkpt lat="45.4755371" lon="11.2376427"><ele>319.1666666666667</ele><time>2026-03-29T09:18:48.135Z</time></trkpt><trkpt lat="45.4756152" lon="11.2377071"><ele>321.33333333333337</ele><time>2026-03-29T09:18:50.113Z</time></trkpt><trkpt lat="45.4756748" lon="11.2377961"><ele>323.5</ele><time>2026-03-29T09:18:52.095Z</time></trkpt><trkpt lat="45.4757341" lon="11.237891"><ele>325.6666666666667</ele><time>2026-03-29T09:18:54.152Z</time></trkpt><trkpt lat="45.4757937" lon="11.2379866"><ele>327.8333333333333</ele><time>2026-03-29T09:18:56.174Z</time></trkpt><trkpt lat="45.4758497" lon="11.2380635"><ele>330.0</ele><time>2026-03-29T09:18:58.081Z</time></trkpt><trkpt lat="45.4759153" lon="11.2381285"><ele>328.1666666666667</ele><time>2026-03-29T09:19:00.137Z</time></trkpt><trkpt lat="45.4760055" lon="11.2381695"><ele>326.3333333333333</ele><time>2026-03-29T09:19:02.187Z</time></trkpt><trkpt lat="45.4760873" lon="11.2382009"><ele>324.5</ele><time>2026-03-29T09:19:04.095Z</time></trkpt><trkpt lat="45.4761635" lon="11.2382308"><ele>322.66666666666663</ele><time>2026-03-29T09:19:06.093Z</time></trkpt><trkpt lat="45.4762423" lon="11.2382577"><ele>320.8333333333333</ele><time>2026-03-29T09:19:08.087Z</time></trkpt><trkpt lat="45.476321" lon="11.2382526"><ele>319.0</ele><time>2026-03-29T09:19:10.09Z</time></trkpt><trkpt lat="45.4763989" lon="11.2381798"><ele>319.5</ele><time>2026-03-29T09:19:12.086Z</time></trkpt><trkpt lat="45.4764578" lon="11.2380632"><ele>320.0</ele><time>2026-03-29T09:19:14.13Z</time></trkpt><trkpt lat="45.4764908" lon="11.2379334"><ele>320.5</ele><time>2026-03-29T09:19:16.09Z</time></trkpt><trkpt lat="45.4765083" lon="11.237815"><ele>321.0</ele><time>2026-03-29T09:19:18.082Z</time></trkpt><trkpt lat="45.4765163" lon="11.2377229"><ele>321.5</ele><time>2026-03-29T09:19:20.076Z</time></trkpt><trkpt lat="45.4764947" lon="11.2378523"><ele>322.0</ele><time>2026-03-29T09:20:14.086Z</time></trkpt><trkpt lat="45.4764795" lon="11.237952"><ele>322.0</ele><time>2026-03-29T09:20:16.093Z</time></trkpt><trkpt lat="45.4764267" lon="11.2380724"><ele>322.0</ele><time>2026-03-29T09:20:18.088Z</time></trkpt><trkpt lat="45.4763414" lon="11.2381283"><ele>322.0</ele><time>2026-03-29T09:20:20.088Z</time></trkpt><trkpt lat="45.4762432" lon="11.2381707"><ele>322.0</ele><time>2026-03-29T09:20:22.084Z</time></trkpt><trkpt lat="45.4761365" lon="11.2381622"><ele>322.0</ele><time>2026-03-29T09:20:24.085Z</time></trkpt><trkpt lat="45.4760394" lon="11.2381437"><ele>323.6</ele><time>2026-03-29T09:20:26.087Z</time></trkpt><trkpt lat="45.4759395" lon="11.2381276"><ele>325.20000000000005</ele><time>2026-03-29T09:20:28.076Z</time></trkpt><trkpt lat="45.4758269" lon="11.2380587"><ele>326.8</ele><time>2026-03-29T09:20:30.094Z</time></trkpt><trkpt lat="45.4757812" lon="11.2379835"><ele>328.4</ele><time>2026-03-29T09:20:31.095Z</time></trkpt><trkpt lat="45.4756885" lon="11.2378495"><ele>330.0</ele><time>2026-03-29T09:20:33.087Z</time></trkpt><trkpt lat="45.4756361" lon="11.2377516"><ele>330.0</ele><time>2026-03-29T09:20:34.126Z</time></trkpt><trkpt lat="45.4755835" lon="11.2376823"><ele>330.0</ele><time>2026-03-29T09:20:35.074Z</time></trkpt><trkpt lat="45.4755179" lon="11.237594"><ele>330.0</ele><time>2026-03-29T09:20:36.128Z</time></trkpt><trkpt lat="45.4754449" lon="11.237521"><ele>330.0</ele><time>2026-03-29T09:20:37.121Z</time></trkpt><trkpt lat="45.4753276" lon="11.2374876"><ele>330.0</ele><time>2026-03-29T09:20:39.1Z</time></trkpt><trkpt lat="45.4752138" lon="11.2374611"><ele>327.8333333333333</ele><time>2026-03-29T09:20:40.079Z</time></trkpt><trkpt lat="45.4751362" lon="11.2374488"><ele>325.6666666666667</ele><time>2026-03-29T09:20:41.113Z</time></trkpt><trkpt lat="45.4750473" lon="11.2374254"><ele>323.5</ele><time>2026-03-29T09:20:42.077Z</time></trkpt><trkpt lat="45.4749907" lon="11.2373824"><ele>321.33333333333337</ele><time>2026-03-29T09:20:43.134Z</time></trkpt><trkpt lat="45.4749281" lon="11.2373296"><ele>319.1666666666667</ele><time>2026-03-29T09:20:44.133Z</time></trkpt><trkpt lat="45.4748259" lon="11.237341"><ele>317.0</ele><time>2026-03-29T09:20:46.143Z</time></trkpt><trkpt lat="45.4748605" lon="11.2374638"><ele>317.0</ele><time>2026-03-29T09:20:47.099Z</time></trkpt><trkpt lat="45.4748993" lon="11.23761"><ele>317.0</ele><time>2026-03-29T09:20:49.151Z</time></trkpt><trkpt lat="45.4749381" lon="11.2376918"><ele>317.0</ele><time>2026-03-29T09:20:50.166Z</time></trkpt><trkpt lat="45.4749684" lon="11.2377794"><ele>317.0</ele><time>2026-03-29T09:20:51.14Z</time></trkpt><trkpt lat="45.4749684" lon="11.2379516"><ele>317.0</ele><time>2026-03-29T09:20:53.128Z</time></trkpt><trkpt lat="45.4749069" lon="11.2380086"><ele>317.0</ele><time>2026-03-29T09:20:54.135Z</time></trkpt><trkpt lat="45.474844" lon="11.2380283"><ele>317.0</ele><time>2026-03-29T09:20:55.107Z</time></trkpt><trkpt lat="45.4747721" lon="11.2380554"><ele>317.0</ele><time>2026-03-29T09:20:56.116Z</time></trkpt><trkpt lat="45.4747028" lon="11.2380916"><ele>317.0</ele><time>2026-03-29T09:20:57.128Z</time></trkpt><trkpt lat="45.4746246" lon="11.2381059"><ele>317.0</ele><time>2026-03-29T09:20:58.138Z</time></trkpt><trkpt lat="45.4745415" lon="11.2381273"><ele>317.0</ele><time>2026-03-29T09:20:59.123Z</time></trkpt><trkpt lat="45.4744552" lon="11.2381531"><ele>317.0</ele><time>2026-03-29T09:21:00.15Z</time></trkpt><trkpt lat="45.4743722" lon="11.2381698"><ele>313.8</ele><time>2026-03-29T09:21:01.113Z</time></trkpt><trkpt lat="45.4742923" lon="11.2381907"><ele>310.6</ele><time>2026-03-29T09:21:02.152Z</time></trkpt><trkpt lat="45.4742228" lon="11.2381989"><ele>307.40000000000003</ele><time>2026-03-29T09:21:03.086Z</time></trkpt><trkpt lat="45.4740713" lon="11.238241"><ele>304.2</ele><time>2026-03-29T09:21:05.119Z</time></trkpt><trkpt lat="45.4740015" lon="11.2382738"><ele>301.0</ele><time>2026-03-29T09:21:06.128Z</time></trkpt><trkpt lat="45.4739283" lon="11.2383058"><ele>301.0</ele><time>2026-03-29T09:21:07.126Z</time></trkpt><trkpt lat="45.4738524" lon="11.2383468"><ele>301.0</ele><time>2026-03-29T09:21:08.126Z</time></trkpt><trkpt lat="45.4737723" lon="11.2383903"><ele>301.0</ele><time>2026-03-29T09:21:09.124Z</time></trkpt><trkpt lat="45.4736923" lon="11.2384254"><ele>301.0</ele><time>2026-03-29T09:21:10.131Z</time></trkpt><trkpt lat="45.4736101" lon="11.2384546"><ele>301.0</ele><time>2026-03-29T09:21:11.151Z</time></trkpt><trkpt lat="45.4735271" lon="11.2384679"><ele>301.0</ele><time>2026-03-29T09:21:12.151Z</time></trkpt><trkpt lat="45.4734502" lon="11.2385009"><ele>300.40000000000003</ele><time>2026-03-29T09:21:13.083Z</time></trkpt><trkpt lat="45.4733822" lon="11.2385526"><ele>299.8</ele><time>2026-03-29T09:21:14.094Z</time></trkpt><trkpt lat="45.4733338" lon="11.2386578"><ele>299.20000000000005</ele><time>2026-03-29T09:21:15.136Z</time></trkpt><trkpt lat="45.4733833" lon="11.2388077"><ele>298.6</ele><time>2026-03-29T09:21:16.14Z</time></trkpt><trkpt lat="45.4733859" lon="11.2389297"><ele>298.0</ele><time>2026-03-29T09:21:17.152Z</time></trkpt><trkpt lat="45.4733871" lon="11.2390651"><ele>296.8333333333333</ele><time>2026-03-29T09:21:18.089Z</time></trkpt><trkpt lat="45.4733913" lon="11.2391638"><ele>295.66666666666663</ele><time>2026-03-29T09:21:19.088Z</time></trkpt><trkpt lat="45.473396" lon="11.239265"><ele>294.5</ele><time>2026-03-29T09:21:20.146Z</time></trkpt><trkpt lat="45.4733568" lon="11.2394128"><ele>293.3333333333333</ele><time>2026-03-29T09:21:23.082Z</time></trkpt><trkpt lat="45.4732768" lon="11.2394607"><ele>292.1666666666667</ele><time>2026-03-29T09:21:26.144Z</time></trkpt><trkpt lat="45.4732189" lon="11.2393817"><ele>291.0</ele><time>2026-03-29T09:21:27.093Z</time></trkpt><trkpt lat="45.4731583" lon="11.2393492"><ele>291.0</ele><time>2026-03-29T09:21:28.087Z</time></trkpt><trkpt lat="45.4730943" lon="11.2392923"><ele>291.0</ele><time>2026-03-29T09:21:29.084Z</time></trkpt><trkpt lat="45.4730277" lon="11.2392233"><ele>291.0</ele><time>2026-03-29T09:21:31.094Z</time></trkpt><trkpt lat="45.4729368" lon="11.2391435"><ele>291.0</ele><time>2026-03-29T09:21:33.158Z</time></trkpt><trkpt lat="45.4728711" lon="11.2390146"><ele>291.0</ele><time>2026-03-29T09:21:35.086Z</time></trkpt><trkpt lat="45.4728084" lon="11.2388975"><ele>293.40000000000003</ele><time>2026-03-29T09:21:37.092Z</time></trkpt><trkpt lat="45.4727469" lon="11.2387912"><ele>295.8</ele><time>2026-03-29T09:21:39.11Z</time></trkpt><trkpt lat="45.4726865" lon="11.2386903"><ele>298.20000000000005</ele><time>2026-03-29T09:21:41.098Z</time></trkpt><trkpt lat="45.4726276" lon="11.2385789"><ele>300.6</ele><time>2026-03-29T09:21:43.086Z</time></trkpt><trkpt lat="45.4725824" lon="11.2384608"><ele>303.0</ele><time>2026-03-29T09:21:45.091Z</time></trkpt><trkpt lat="45.4725626" lon="11.2383391"><ele>303.0</ele><time>2026-03-29T09:21:47.094Z</time></trkpt><trkpt lat="45.4725555" lon="11.238218"><ele>303.0</ele><time>2026-03-29T09:21:49.165Z</time></trkpt><trkpt lat="45.4725548" lon="11.2381002"><ele>303.0</ele><time>2026-03-29T09:21:51.089Z</time></trkpt><trkpt lat="45.4725503" lon="11.2379929"><ele>303.0</ele><time>2026-03-29T09:21:53.129Z</time></trkpt><trkpt lat="45.472534" lon="11.2378912"><ele>303.0</ele><time>2026-03-29T09:21:55.136Z</time></trkpt><trkpt lat="45.4724758" lon="11.2378058"><ele>303.0</ele><time>2026-03-29T09:21:58.141Z</time></trkpt><trkpt lat="45.4724079" lon="11.2378461"><ele>304.0</ele><time>2026-03-29T09:22:01.093Z</time></trkpt><trkpt lat="45.4723686" lon="11.237952"><ele>305.0</ele><time>2026-03-29T09:22:04.096Z</time></trkpt><trkpt lat="45.4723201" lon="11.2380101"><ele>306.0</ele><time>2026-03-29T09:22:06.092Z</time></trkpt><trkpt lat="45.4722604" lon="11.2380458"><ele>307.0</ele><time>2026-03-29T09:22:08.098Z</time></trkpt><trkpt lat="45.4721849" lon="11.2380473"><ele>308.0</ele><time>2026-03-29T09:22:10.124Z</time></trkpt><trkpt lat="45.4720696" lon="11.2380456"><ele>309.0</ele><time>2026-03-29T09:22:13.093Z</time></trkpt><trkpt lat="45.4719931" lon="11.2380362"><ele>309.4</ele><time>2026-03-29T09:22:15.179Z</time></trkpt><trkpt lat="45.4719111" lon="11.2380075"><ele>309.79999999999995</ele><time>2026-03-29T09:22:17.136Z</time></trkpt><trkpt lat="45.4718151" lon="11.2379836"><ele>310.20000000000005</ele><time>2026-03-29T09:22:19.087Z</time></trkpt><trkpt lat="45.4717125" lon="11.2379566"><ele>310.6</ele><time>2026-03-29T09:22:21.142Z</time></trkpt><trkpt lat="45.4716075" lon="11.2379044"><ele>311.0</ele><time>2026-03-29T09:22:23.144Z</time></trkpt><trkpt lat="45.4715027" lon="11.237858"><ele>311.0</ele><time>2026-03-29T09:22:25.091Z</time></trkpt><trkpt lat="45.4713999" lon="11.2378168"><ele>311.0</ele><time>2026-03-29T09:22:27.098Z</time></trkpt><trkpt lat="45.4712732" lon="11.2377931"><ele>311.0</ele><time>2026-03-29T09:22:29.098Z</time></trkpt><trkpt lat="45.4712069" lon="11.2377902"><ele>311.0</ele><time>2026-03-29T09:22:30.136Z</time></trkpt><trkpt lat="45.4711385" lon="11.2377914"><ele>311.0</ele><time>2026-03-29T09:22:31.148Z</time></trkpt><trkpt lat="45.4710662" lon="11.2378022"><ele>311.0</ele><time>2026-03-29T09:22:32.161Z</time></trkpt><trkpt lat="45.4709936" lon="11.2378173"><ele>310.0</ele><time>2026-03-29T09:22:33.13Z</time></trkpt><trkpt lat="45.4708713" lon="11.2378315"><ele>309.0</ele><time>2026-03-29T09:22:35.14Z</time></trkpt><trkpt lat="45.4707566" lon="11.2378447"><ele>308.0</ele><time>2026-03-29T09:22:37.142Z</time></trkpt><trkpt lat="45.470666" lon="11.2378511"><ele>307.0</ele><time>2026-03-29T09:22:39.141Z</time></trkpt><trkpt lat="45.4705807" lon="11.23785"><ele>306.0</ele><time>2026-03-29T09:22:41.089Z</time></trkpt><trkpt lat="45.4704651" lon="11.2378398"><ele>306.6</ele><time>2026-03-29T09:22:44.091Z</time></trkpt><trkpt lat="45.4703836" lon="11.2378297"><ele>307.20000000000005</ele><time>2026-03-29T09:22:46.094Z</time></trkpt><trkpt lat="45.4702988" lon="11.2378225"><ele>307.79999999999995</ele><time>2026-03-29T09:22:48.1Z</time></trkpt><trkpt lat="45.4702091" lon="11.2378088"><ele>308.4</ele><time>2026-03-29T09:22:50.093Z</time></trkpt><trkpt lat="45.4701184" lon="11.23776"><ele>309.0</ele><time>2026-03-29T09:22:52.078Z</time></trkpt><trkpt lat="45.4700161" lon="11.2377112"><ele>309.0</ele><time>2026-03-29T09:22:54.119Z</time></trkpt><trkpt lat="45.4699138" lon="11.2376512"><ele>309.0</ele><time>2026-03-29T09:22:56.125Z</time></trkpt><trkpt lat="45.4698078" lon="11.2375942"><ele>309.0</ele><time>2026-03-29T09:22:58.153Z</time></trkpt><trkpt lat="45.4696754" lon="11.2375367"><ele>309.0</ele><time>2026-03-29T09:23:00.078Z</time></trkpt><trkpt lat="45.4695554" lon="11.2374844"><ele>309.0</ele><time>2026-03-29T09:23:02.117Z</time></trkpt><trkpt lat="45.4694549" lon="11.2374367"><ele>309.0</ele><time>2026-03-29T09:23:04.138Z</time></trkpt><trkpt lat="45.469388" lon="11.2374138"><ele>309.0</ele><time>2026-03-29T09:23:05.14Z</time></trkpt><trkpt lat="45.4692774" lon="11.2373744"><ele>309.0</ele><time>2026-03-29T09:23:07.142Z</time></trkpt><trkpt lat="45.469168" lon="11.2373336"><ele>309.0</ele><time>2026-03-29T09:23:09.154Z</time></trkpt><trkpt lat="45.4691081" lon="11.2373053"><ele>311.0</ele><time>2026-03-29T09:23:10.143Z</time></trkpt><trkpt lat="45.4690028" lon="11.2372396"><ele>313.0</ele><time>2026-03-29T09:23:12.148Z</time></trkpt><trkpt lat="45.4688867" lon="11.2371767"><ele>315.0</ele><time>2026-03-29T09:23:14.143Z</time></trkpt><trkpt lat="45.4687986" lon="11.2371058"><ele>317.0</ele><time>2026-03-29T09:23:16.202Z</time></trkpt><trkpt lat="45.4687182" lon="11.2370284"><ele>319.0</ele><time>2026-03-29T09:23:18.106Z</time></trkpt><trkpt lat="45.4686233" lon="11.2369528"><ele>319.75</ele><time>2026-03-29T09:23:20.095Z</time></trkpt><trkpt lat="45.4685073" lon="11.2369179"><ele>320.5</ele><time>2026-03-29T09:23:22.107Z</time></trkpt><trkpt lat="45.4683836" lon="11.2369087"><ele>321.25</ele><time>2026-03-29T09:23:24.148Z</time></trkpt><trkpt lat="45.4682588" lon="11.2368623"><ele>322.0</ele><time>2026-03-29T09:23:26.224Z</time></trkpt><trkpt lat="45.4681688" lon="11.2368551"><ele>322.0</ele><time>2026-03-29T09:23:28.148Z</time></trkpt><trkpt lat="45.4680807" lon="11.2368606"><ele>322.0</ele><time>2026-03-29T09:23:30.083Z</time></trkpt><trkpt lat="45.4679534" lon="11.2369892"><ele>322.0</ele><time>2026-03-29T09:23:33.089Z</time></trkpt><trkpt lat="45.4678884" lon="11.2370799"><ele>322.0</ele><time>2026-03-29T09:23:35.104Z</time></trkpt><trkpt lat="45.4678154" lon="11.2372106"><ele>322.8</ele><time>2026-03-29T09:23:37.12Z</time></trkpt><trkpt lat="45.4677692" lon="11.2372955"><ele>323.6</ele><time>2026-03-29T09:23:39.126Z</time></trkpt><trkpt lat="45.4676854" lon="11.2373733"><ele>324.40000000000003</ele><time>2026-03-29T09:23:41.084Z</time></trkpt><trkpt lat="45.4675804" lon="11.2374157"><ele>325.20000000000005</ele><time>2026-03-29T09:23:43.085Z</time></trkpt><trkpt lat="45.4674776" lon="11.2374473"><ele>326.0</ele><time>2026-03-29T09:23:45.103Z</time></trkpt><trkpt lat="45.4673845" lon="11.2374722"><ele>326.0</ele><time>2026-03-29T09:23:47.108Z</time></trkpt><trkpt lat="45.4672917" lon="11.2374957"><ele>326.0</ele><time>2026-03-29T09:23:49.121Z</time></trkpt><trkpt lat="45.4671904" lon="11.2375334"><ele>326.0</ele><time>2026-03-29T09:23:51.088Z</time></trkpt><trkpt lat="45.4671145" lon="11.2375591"><ele>326.0</ele><time>2026-03-29T09:23:53.089Z</time></trkpt><trkpt lat="45.4670418" lon="11.2375968"><ele>326.0</ele><time>2026-03-29T09:23:55.091Z</time></trkpt><trkpt lat="45.4669626" lon="11.2376333"><ele>326.0</ele><time>2026-03-29T09:23:57.108Z</time></trkpt><trkpt lat="45.4668818" lon="11.2376639"><ele>327.83333333333337</ele><time>2026-03-29T09:23:59.102Z</time></trkpt><trkpt lat="45.466809" lon="11.2377117"><ele>329.6666666666667</ele><time>2026-03-29T09:24:01.115Z</time></trkpt><trkpt lat="45.4667331" lon="11.2377352"><ele>331.5</ele><time>2026-03-29T09:24:03.117Z</time></trkpt><trkpt lat="45.4666483" lon="11.2377432"><ele>333.3333333333333</ele><time>2026-03-29T09:24:05.081Z</time></trkpt><trkpt lat="45.4665581" lon="11.2377293"><ele>335.16666666666663</ele><time>2026-03-29T09:24:07.132Z</time></trkpt><trkpt lat="45.466471" lon="11.2377049"><ele>337.0</ele><time>2026-03-29T09:24:09.153Z</time></trkpt><trkpt lat="45.4663953" lon="11.2376603"><ele>337.0</ele><time>2026-03-29T09:24:11.096Z</time></trkpt><trkpt lat="45.4663193" lon="11.2376208"><ele>337.0</ele><time>2026-03-29T09:24:13.083Z</time></trkpt><trkpt lat="45.4662513" lon="11.2375825"><ele>337.0</ele><time>2026-03-29T09:24:15.244Z</time></trkpt><trkpt lat="45.4661754" lon="11.2375388"><ele>337.0</ele><time>2026-03-29T09:24:17.091Z</time></trkpt><trkpt lat="45.466095" lon="11.2375295"><ele>337.0</ele><time>2026-03-29T09:24:19.127Z</time></trkpt><trkpt lat="45.4660151" lon="11.237536"><ele>337.0</ele><time>2026-03-29T09:24:22.077Z</time></trkpt><trkpt lat="45.4659313" lon="11.2375638"><ele>336.8</ele><time>2026-03-29T09:24:37.177Z</time></trkpt><trkpt lat="45.4658557" lon="11.2375933"><ele>336.6</ele><time>2026-03-29T09:24:39.146Z</time></trkpt><trkpt lat="45.4657649" lon="11.2375986"><ele>336.40000000000003</ele><time>2026-03-29T09:24:41.08Z</time></trkpt><trkpt lat="45.4656649" lon="11.2375821"><ele>336.20000000000005</ele><time>2026-03-29T09:24:43.09Z</time></trkpt><trkpt lat="45.4655619" lon="11.2375355"><ele>336.0</ele><time>2026-03-29T09:24:45.095Z</time></trkpt><trkpt lat="45.4654713" lon="11.237495"><ele>336.0</ele><time>2026-03-29T09:24:47.093Z</time></trkpt><trkpt lat="45.4653913" lon="11.2374538"><ele>336.0</ele><time>2026-03-29T09:24:49.083Z</time></trkpt><trkpt lat="45.4653091" lon="11.2374167"><ele>336.0</ele><time>2026-03-29T09:24:51.089Z</time></trkpt><trkpt lat="45.4652334" lon="11.237387"><ele>336.0</ele><time>2026-03-29T09:24:53.09Z</time></trkpt><trkpt lat="45.4651693" lon="11.2373511"><ele>336.0</ele><time>2026-03-29T09:24:55.097Z</time></trkpt><trkpt lat="45.4650952" lon="11.2373049"><ele>336.0</ele><time>2026-03-29T09:24:57.084Z</time></trkpt><trkpt lat="45.4650299" lon="11.2372738"><ele>336.0</ele><time>2026-03-29T09:24:59.115Z</time></trkpt><trkpt lat="45.4649337" lon="11.2372387"><ele>336.0</ele><time>2026-03-29T09:25:02.128Z</time></trkpt><trkpt lat="45.4648544" lon="11.2372083"><ele>336.0</ele><time>2026-03-29T09:25:05.094Z</time></trkpt><trkpt lat="45.4647899" lon="11.237208"><ele>336.0</ele><time>2026-03-29T09:25:07.079Z</time></trkpt><trkpt lat="45.4647194" lon="11.2372525"><ele>336.0</ele><time>2026-03-29T09:25:12.093Z</time></trkpt><trkpt lat="45.4646681" lon="11.2373075"><ele>336.0</ele><time>2026-03-29T09:27:18.08Z</time></trkpt><trkpt lat="45.4646151" lon="11.2373889"><ele>335.20000000000005</ele><time>2026-03-29T09:27:21.079Z</time></trkpt><trkpt lat="45.4645565" lon="11.2374533"><ele>334.40000000000003</ele><time>2026-03-29T09:27:23.084Z</time></trkpt><trkpt lat="45.4644914" lon="11.2375234"><ele>333.6</ele><time>2026-03-29T09:27:25.088Z</time></trkpt><trkpt lat="45.4644093" lon="11.2376112"><ele>332.8</ele><time>2026-03-29T09:27:27.085Z</time></trkpt><trkpt lat="45.4643148" lon="11.2376887"><ele>332.0</ele><time>2026-03-29T09:27:29.077Z</time></trkpt><trkpt lat="45.4641957" lon="11.2377725"><ele>332.0</ele><time>2026-03-29T09:27:31.079Z</time></trkpt><trkpt lat="45.4641117" lon="11.2378284"><ele>332.0</ele><time>2026-03-29T09:27:33.08Z</time></trkpt><trkpt lat="45.4640069" lon="11.2378663"><ele>332.0</ele><time>2026-03-29T09:27:35.084Z</time></trkpt><trkpt lat="45.4639365" lon="11.2379282"><ele>332.0</ele><time>2026-03-29T09:27:37.083Z</time></trkpt><trkpt lat="45.4638536" lon="11.2379221"><ele>332.0</ele><time>2026-03-29T09:27:39.079Z</time></trkpt><trkpt lat="45.4638535" lon="11.2377909"><ele>332.0</ele><time>2026-03-29T09:27:42.077Z</time></trkpt><trkpt lat="45.4638876" lon="11.2376474"><ele>332.0</ele><time>2026-03-29T09:27:44.08Z</time></trkpt><trkpt lat="45.4639144" lon="11.2375639"><ele>332.0</ele><time>2026-03-29T09:27:45.079Z</time></trkpt><trkpt lat="45.4639368" lon="11.2374104"><ele>332.0</ele><time>2026-03-29T09:27:47.081Z</time></trkpt><trkpt lat="45.4639694" lon="11.2372632"><ele>332.0</ele><time>2026-03-29T09:27:49.076Z</time></trkpt><trkpt lat="45.4639939" lon="11.2371614"><ele>332.20000000000005</ele><time>2026-03-29T09:27:51.086Z</time></trkpt><trkpt lat="45.464019" lon="11.2370437"><ele>332.4</ele><time>2026-03-29T09:27:53.084Z</time></trkpt><trkpt lat="45.4640324" lon="11.2369166"><ele>332.6</ele><time>2026-03-29T09:27:55.086Z</time></trkpt><trkpt lat="45.4640316" lon="11.2367983"><ele>332.79999999999995</ele><time>2026-03-29T09:27:57.082Z</time></trkpt><trkpt lat="45.4639787" lon="11.2366305"><ele>333.0</ele><time>2026-03-29T09:27:59.09Z</time></trkpt><trkpt lat="45.4639142" lon="11.2365074"><ele>332.59999999999997</ele><time>2026-03-29T09:28:01.081Z</time></trkpt><trkpt lat="45.4638449" lon="11.23639"><ele>332.2</ele><time>2026-03-29T09:28:03.085Z</time></trkpt><trkpt lat="45.463842" lon="11.2362025"><ele>331.8</ele><time>2026-03-29T09:28:05.101Z</time></trkpt><trkpt lat="45.4638291" lon="11.2360414"><ele>331.4</ele><time>2026-03-29T09:28:07.085Z</time></trkpt><trkpt lat="45.4638362" lon="11.2359115"><ele>331.0</ele><time>2026-03-29T09:28:09.081Z</time></trkpt><trkpt lat="45.4638265" lon="11.2357988"><ele>331.0</ele><time>2026-03-29T09:28:11.079Z</time></trkpt><trkpt lat="45.4638201" lon="11.2356957"><ele>331.0</ele><time>2026-03-29T09:28:13.082Z</time></trkpt><trkpt lat="45.4638162" lon="11.2355757"><ele>331.0</ele><time>2026-03-29T09:28:58.079Z</time></trkpt><trkpt lat="45.46384" lon="11.2354697"><ele>331.0</ele><time>2026-03-29T09:29:01.083Z</time></trkpt><trkpt lat="45.463852" lon="11.235364"><ele>331.0</ele><time>2026-03-29T09:29:03.082Z</time></trkpt><trkpt lat="45.4638498" lon="11.235255"><ele>331.0</ele><time>2026-03-29T09:29:05.086Z</time></trkpt><trkpt lat="45.4638335" lon="11.2351376"><ele>329.8333333333333</ele><time>2026-03-29T09:29:07.08Z</time></trkpt><trkpt lat="45.4638179" lon="11.235021"><ele>328.66666666666663</ele><time>2026-03-29T09:29:09.084Z</time></trkpt><trkpt lat="45.4638041" lon="11.2348858"><ele>327.5</ele><time>2026-03-29T09:29:11.085Z</time></trkpt><trkpt lat="45.4637842" lon="11.2347589"><ele>326.3333333333333</ele><time>2026-03-29T09:29:13.081Z</time></trkpt><trkpt lat="45.4637612" lon="11.2346288"><ele>325.1666666666667</ele><time>2026-03-29T09:29:15.088Z</time></trkpt><trkpt lat="45.463759" lon="11.2345319"><ele>324.0</ele><time>2026-03-29T09:29:16.08Z</time></trkpt><trkpt lat="45.4637446" lon="11.2344187"><ele>320.8333333333333</ele><time>2026-03-29T09:29:18.09Z</time></trkpt><trkpt lat="45.4637137" lon="11.2343142"><ele>317.6666666666667</ele><time>2026-03-29T09:29:20.072Z</time></trkpt><trkpt lat="45.4636333" lon="11.2342381"><ele>314.5</ele><time>2026-03-29T09:29:23.078Z</time></trkpt><trkpt lat="45.4635688" lon="11.2342184"><ele>311.33333333333337</ele><time>2026-03-29T09:29:24.079Z</time></trkpt><trkpt lat="45.4634687" lon="11.2341828"><ele>308.1666666666667</ele><time>2026-03-29T09:29:26.08Z</time></trkpt><trkpt lat="45.4634025" lon="11.2341687"><ele>305.0</ele><time>2026-03-29T09:29:27.079Z</time></trkpt><trkpt lat="45.4633266" lon="11.2341576"><ele>305.0</ele><time>2026-03-29T09:29:28.084Z</time></trkpt><trkpt lat="45.4632542" lon="11.2341434"><ele>305.0</ele><time>2026-03-29T09:29:29.079Z</time></trkpt><trkpt lat="45.4631769" lon="11.2340918"><ele>305.0</ele><time>2026-03-29T09:29:30.08Z</time></trkpt><trkpt lat="45.4631106" lon="11.2340997"><ele>305.0</ele><time>2026-03-29T09:29:31.085Z</time></trkpt><trkpt lat="45.4630271" lon="11.2340713"><ele>305.0</ele><time>2026-03-29T09:29:33.082Z</time></trkpt><trkpt lat="45.4629813" lon="11.2340019"><ele>305.0</ele><time>2026-03-29T09:29:34.086Z</time></trkpt><trkpt lat="45.4630087" lon="11.2338762"><ele>305.0</ele><time>2026-03-29T09:29:35.095Z</time></trkpt><trkpt lat="45.4629531" lon="11.2337046"><ele>305.0</ele><time>2026-03-29T09:29:37.076Z</time></trkpt><trkpt lat="45.4629139" lon="11.2335884"><ele>305.0</ele><time>2026-03-29T09:29:38.085Z</time></trkpt><trkpt lat="45.4628886" lon="11.2334651"><ele>305.0</ele><time>2026-03-29T09:29:39.086Z</time></trkpt><trkpt lat="45.4628622" lon="11.2333527"><ele>305.0</ele><time>2026-03-29T09:29:40.079Z</time></trkpt><trkpt lat="45.4627845" lon="11.2332289"><ele>301.1666666666667</ele><time>2026-03-29T09:29:41.086Z</time></trkpt><trkpt lat="45.4627664" lon="11.2331034"><ele>297.33333333333337</ele><time>2026-03-29T09:29:42.084Z</time></trkpt><trkpt lat="45.4627608" lon="11.233005"><ele>293.5</ele><time>2026-03-29T09:29:43.095Z</time></trkpt><trkpt lat="45.462747" lon="11.2329044"><ele>289.6666666666667</ele><time>2026-03-29T09:29:44.082Z</time></trkpt><trkpt lat="45.4627209" lon="11.2328088"><ele>285.8333333333333</ele><time>2026-03-29T09:29:45.083Z</time></trkpt><trkpt lat="45.4627198" lon="11.2327015"><ele>282.0</ele><time>2026-03-29T09:29:47.126Z</time></trkpt><trkpt lat="45.4628075" lon="11.2326551"><ele>282.0</ele><time>2026-03-29T09:30:06.092Z</time></trkpt><trkpt lat="45.4628523" lon="11.2325913"><ele>282.0</ele><time>2026-03-29T09:30:08.083Z</time></trkpt><trkpt lat="45.4629153" lon="11.2325408"><ele>282.0</ele><time>2026-03-29T09:30:10.077Z</time></trkpt><trkpt lat="45.4629763" lon="11.2324712"><ele>282.0</ele><time>2026-03-29T09:30:13.086Z</time></trkpt><trkpt lat="45.4630334" lon="11.2323935"><ele>282.0</ele><time>2026-03-29T09:30:16.086Z</time></trkpt><trkpt lat="45.4630702" lon="11.23232"><ele>282.0</ele><time>2026-03-29T09:30:19.08Z</time></trkpt><trkpt lat="45.4631018" lon="11.2322397"><ele>282.0</ele><time>2026-03-29T09:30:25.081Z</time></trkpt><trkpt lat="45.4631437" lon="11.2321671"><ele>281.0</ele><time>2026-03-29T09:30:31.077Z</time></trkpt><trkpt lat="45.4632699" lon="11.2321678"><ele>280.0</ele><time>2026-03-29T09:31:27.085Z</time></trkpt><trkpt lat="45.4633884" lon="11.2321662"><ele>279.0</ele><time>2026-03-29T09:31:31.087Z</time></trkpt><trkpt lat="45.4634951" lon="11.2322777"><ele>278.0</ele><time>2026-03-29T09:31:35.081Z</time></trkpt><trkpt lat="45.463556" lon="11.2323052"><ele>277.0</ele><time>2026-03-29T09:31:37.086Z</time></trkpt><trkpt lat="45.4636425" lon="11.2322821"><ele>277.0</ele><time>2026-03-29T09:31:40.083Z</time></trkpt><trkpt lat="45.4637241" lon="11.232243"><ele>277.0</ele><time>2026-03-29T09:31:43.086Z</time></trkpt><trkpt lat="45.4638039" lon="11.2322161"><ele>277.0</ele><time>2026-03-29T09:31:47.08Z</time></trkpt><trkpt lat="45.4638764" lon="11.2322166"><ele>277.0</ele><time>2026-03-29T09:31:50.08Z</time></trkpt><trkpt lat="45.4639509" lon="11.2322237"><ele>277.0</ele><time>2026-03-29T09:31:53.083Z</time></trkpt><trkpt lat="45.4640281" lon="11.2321982"><ele>277.0</ele><time>2026-03-29T09:31:57.08Z</time></trkpt><trkpt lat="45.4641038" lon="11.2321308"><ele>280.8333333333333</ele><time>2026-03-29T09:32:00.076Z</time></trkpt><trkpt lat="45.4641351" lon="11.232018"><ele>284.66666666666663</ele><time>2026-03-29T09:32:03.09Z</time></trkpt><trkpt lat="45.4641504" lon="11.2319094"><ele>288.5</ele><time>2026-03-29T09:32:06.083Z</time></trkpt><trkpt lat="45.464188" lon="11.2318249"><ele>292.3333333333333</ele><time>2026-03-29T09:32:09.077Z</time></trkpt><trkpt lat="45.4642202" lon="11.23174"><ele>296.1666666666667</ele><time>2026-03-29T09:32:12.079Z</time></trkpt><trkpt lat="45.4642425" lon="11.2316315"><ele>300.0</ele><time>2026-03-29T09:32:15.082Z</time></trkpt><trkpt lat="45.4642729" lon="11.2315053"><ele>297.1666666666667</ele><time>2026-03-29T09:32:18.081Z</time></trkpt><trkpt lat="45.4642905" lon="11.2314182"><ele>294.3333333333333</ele><time>2026-03-29T09:32:20.086Z</time></trkpt><trkpt lat="45.464337" lon="11.2313064"><ele>291.5</ele><time>2026-03-29T09:32:23.094Z</time></trkpt><trkpt lat="45.4644026" lon="11.2312176"><ele>288.66666666666663</ele><time>2026-03-29T09:32:26.09Z</time></trkpt><trkpt lat="45.4644754" lon="11.2311651"><ele>285.8333333333333</ele><time>2026-03-29T09:32:29.08Z</time></trkpt><trkpt lat="45.4644198" lon="11.2311188"><ele>283.0</ele><time>2026-03-29T09:33:48.085Z</time></trkpt><trkpt lat="45.4643725" lon="11.2311816"><ele>283.0</ele><time>2026-03-29T09:34:01.079Z</time></trkpt><trkpt lat="45.4644352" lon="11.2311419"><ele>283.0</ele><time>2026-03-29T09:34:27.083Z</time></trkpt><trkpt lat="45.4644906" lon="11.2310672"><ele>283.0</ele><time>2026-03-29T09:40:10.057Z</time></trkpt><trkpt lat="45.464576" lon="11.2310261"><ele>283.0</ele><time>2026-03-29T09:40:13.085Z</time></trkpt><trkpt lat="45.4646531" lon="11.2308676"><ele>283.0</ele><time>2026-03-29T09:40:15.078Z</time></trkpt><trkpt lat="45.4647507" lon="11.230815"><ele>283.5</ele><time>2026-03-29T09:40:18.119Z</time></trkpt><trkpt lat="45.4648611" lon="11.2307247"><ele>284.0</ele><time>2026-03-29T09:40:21.107Z</time></trkpt><trkpt lat="45.4649249" lon="11.2306723"><ele>284.5</ele><time>2026-03-29T09:40:23.088Z</time></trkpt><trkpt lat="45.4650029" lon="11.2306373"><ele>285.0</ele><time>2026-03-29T09:40:26.079Z</time></trkpt><trkpt lat="45.4650642" lon="11.2305703"><ele>285.5</ele><time>2026-03-29T09:40:28.109Z</time></trkpt><trkpt lat="45.465121" lon="11.2305207"><ele>286.0</ele><time>2026-03-29T09:40:30.098Z</time></trkpt><trkpt lat="45.4651878" lon="11.2304487"><ele>286.0</ele><time>2026-03-29T09:40:33.085Z</time></trkpt><trkpt lat="45.4652468" lon="11.2303628"><ele>286.0</ele><time>2026-03-29T09:40:36.127Z</time></trkpt><trkpt lat="45.4652982" lon="11.2302873"><ele>286.0</ele><time>2026-03-29T09:40:38.131Z</time></trkpt><trkpt lat="45.4653559" lon="11.2302294"><ele>286.0</ele><time>2026-03-29T09:40:40.098Z</time></trkpt><trkpt lat="45.4654439" lon="11.2302188"><ele>286.0</ele><time>2026-03-29T09:40:43.145Z</time></trkpt><trkpt lat="45.4655174" lon="11.2302312"><ele>286.0</ele><time>2026-03-29T09:40:46.088Z</time></trkpt><trkpt lat="45.4655834" lon="11.2302786"><ele>286.99999999999994</ele><time>2026-03-29T09:40:48.129Z</time></trkpt><trkpt lat="45.4656515" lon="11.2303109"><ele>288.0</ele><time>2026-03-29T09:40:50.095Z</time></trkpt><trkpt lat="45.4657155" lon="11.2303464"><ele>289.0</ele><time>2026-03-29T09:40:52.128Z</time></trkpt><trkpt lat="45.4657701" lon="11.2302939"><ele>290.0</ele><time>2026-03-29T09:40:55.095Z</time></trkpt><trkpt lat="45.4658446" lon="11.2302709"><ele>291.0</ele><time>2026-03-29T09:40:58.083Z</time></trkpt><trkpt lat="45.4658858" lon="11.2301927"><ele>291.99999999999994</ele><time>2026-03-29T09:41:02.086Z</time></trkpt><trkpt lat="45.4658818" lon="11.2300791"><ele>293.0</ele><time>2026-03-29T09:41:07.083Z</time></trkpt><trkpt lat="45.4659259" lon="11.2299623"><ele>293.0</ele><time>2026-03-29T09:41:10.086Z</time></trkpt><trkpt lat="45.4659727" lon="11.2298446"><ele>293.0</ele><time>2026-03-29T09:41:13.129Z</time></trkpt><trkpt lat="45.4660225" lon="11.2297677"><ele>293.0</ele><time>2026-03-29T09:41:15.182Z</time></trkpt><trkpt lat="45.466071" lon="11.229661"><ele>293.0</ele><time>2026-03-29T09:41:18.089Z</time></trkpt><trkpt lat="45.4661348" lon="11.2295978"><ele>293.0</ele><time>2026-03-29T09:41:23.133Z</time></trkpt><trkpt lat="45.4662073" lon="11.2295324"><ele>293.0</ele><time>2026-03-29T09:41:27.098Z</time></trkpt><trkpt lat="45.4662827" lon="11.2294807"><ele>292.0</ele><time>2026-03-29T09:41:30.094Z</time></trkpt><trkpt lat="45.466356" lon="11.2294349"><ele>291.0</ele><time>2026-03-29T09:41:34.138Z</time></trkpt><trkpt lat="45.4664194" lon="11.2294237"><ele>290.0</ele><time>2026-03-29T09:41:37.138Z</time></trkpt><trkpt lat="45.4664916" lon="11.2294376"><ele>289.0</ele><time>2026-03-29T09:41:41.106Z</time></trkpt><trkpt lat="45.4665714" lon="11.2294554"><ele>288.0</ele><time>2026-03-29T09:41:45.158Z</time></trkpt><trkpt lat="45.4666532" lon="11.2294745"><ele>287.0</ele><time>2026-03-29T09:41:48.094Z</time></trkpt><trkpt lat="45.4667419" lon="11.2294846"><ele>287.0</ele><time>2026-03-29T09:41:51.142Z</time></trkpt><trkpt lat="45.4668099" lon="11.2294356"><ele>287.0</ele><time>2026-03-29T09:41:54.085Z</time></trkpt><trkpt lat="45.4668845" lon="11.2293779"><ele>287.0</ele><time>2026-03-29T09:41:57.14Z</time></trkpt><trkpt lat="45.4668801" lon="11.2292793"><ele>287.0</ele><time>2026-03-29T09:41:59.094Z</time></trkpt><trkpt lat="45.4668499" lon="11.2291998"><ele>287.0</ele><time>2026-03-29T09:42:01.096Z</time></trkpt><trkpt lat="45.4668548" lon="11.229057"><ele>287.0</ele><time>2026-03-29T09:42:05.149Z</time></trkpt><trkpt lat="45.466874" lon="11.2289576"><ele>283.25</ele><time>2026-03-29T09:42:08.101Z</time></trkpt><trkpt lat="45.4668939" lon="11.2288303"><ele>279.5</ele><time>2026-03-29T09:42:12.095Z</time></trkpt><trkpt lat="45.4669093" lon="11.2286917"><ele>275.75</ele><time>2026-03-29T09:42:15.159Z</time></trkpt><trkpt lat="45.4669372" lon="11.2285536"><ele>272.0</ele><time>2026-03-29T09:42:17.091Z</time></trkpt><trkpt lat="45.4670035" lon="11.2281182"><ele>270.5</ele><time>2026-03-29T09:42:18.086Z</time></trkpt><trkpt lat="45.4670523" lon="11.2280227"><ele>269.0</ele><time>2026-03-29T09:42:19.092Z</time></trkpt><trkpt lat="45.4670263" lon="11.2278969"><ele>267.5</ele><time>2026-03-29T09:42:22.107Z</time></trkpt><trkpt lat="45.4670556" lon="11.2277802"><ele>266.0</ele><time>2026-03-29T09:42:24.09Z</time></trkpt><trkpt lat="45.4670426" lon="11.2276877"><ele>264.5</ele><time>2026-03-29T09:42:26.094Z</time></trkpt><trkpt lat="45.4670662" lon="11.2275771"><ele>263.0</ele><time>2026-03-29T09:42:29.084Z</time></trkpt><trkpt lat="45.4670805" lon="11.2274851"><ele>263.0</ele><time>2026-03-29T09:42:31.124Z</time></trkpt><trkpt lat="45.467096" lon="11.2273855"><ele>263.0</ele><time>2026-03-29T09:42:33.084Z</time></trkpt><trkpt lat="45.4670937" lon="11.2272892"><ele>263.0</ele><time>2026-03-29T09:42:35.092Z</time></trkpt><trkpt lat="45.4670777" lon="11.227166"><ele>263.0</ele><time>2026-03-29T09:42:38.084Z</time></trkpt><trkpt lat="45.4671171" lon="11.2270778"><ele>263.0</ele><time>2026-03-29T09:42:40.079Z</time></trkpt><trkpt lat="45.4671671" lon="11.2269582"><ele>263.0</ele><time>2026-03-29T09:42:42.101Z</time></trkpt><trkpt lat="45.4672074" lon="11.2268823"><ele>266.33333333333337</ele><time>2026-03-29T09:42:43.099Z</time></trkpt><trkpt lat="45.4672211" lon="11.2267576"><ele>269.6666666666667</ele><time>2026-03-29T09:42:45.097Z</time></trkpt><trkpt lat="45.4672129" lon="11.2266498"><ele>273.0</ele><time>2026-03-29T09:42:47.087Z</time></trkpt><trkpt lat="45.4672172" lon="11.226518"><ele>276.3333333333333</ele><time>2026-03-29T09:42:49.091Z</time></trkpt><trkpt lat="45.4672233" lon="11.2264024"><ele>279.66666666666663</ele><time>2026-03-29T09:42:51.094Z</time></trkpt><trkpt lat="45.4672204" lon="11.2263094"><ele>283.0</ele><time>2026-03-29T09:42:52.085Z</time></trkpt><trkpt lat="45.4672227" lon="11.2261847"><ele>283.0</ele><time>2026-03-29T09:42:54.079Z</time></trkpt><trkpt lat="45.4672074" lon="11.226096"><ele>283.0</ele><time>2026-03-29T09:42:56.145Z</time></trkpt><trkpt lat="45.4672178" lon="11.2260071"><ele>283.0</ele><time>2026-03-29T09:42:59.086Z</time></trkpt><trkpt lat="45.4672122" lon="11.2258792"><ele>283.0</ele><time>2026-03-29T09:43:02.131Z</time></trkpt><trkpt lat="45.4671915" lon="11.2257876"><ele>283.0</ele><time>2026-03-29T09:43:06.087Z</time></trkpt><trkpt lat="45.4671905" lon="11.2256838"><ele>283.0</ele><time>2026-03-29T09:43:10.098Z</time></trkpt><trkpt lat="45.4671774" lon="11.2255606"><ele>283.0</ele><time>2026-03-29T09:43:14.102Z</time></trkpt><trkpt lat="45.4671619" lon="11.2254736"><ele>282.5</ele><time>2026-03-29T09:43:16.098Z</time></trkpt><trkpt lat="45.4671379" lon="11.225375"><ele>282.0</ele><time>2026-03-29T09:43:18.104Z</time></trkpt><trkpt lat="45.4671334" lon="11.2252734"><ele>281.5</ele><time>2026-03-29T09:43:21.098Z</time></trkpt><trkpt lat="45.4671123" lon="11.2251416"><ele>281.0</ele><time>2026-03-29T09:43:26.102Z</time></trkpt><trkpt lat="45.4670877" lon="11.2250416"><ele>280.5</ele><time>2026-03-29T09:43:30.133Z</time></trkpt><trkpt lat="45.4670898" lon="11.2249467"><ele>280.0</ele><time>2026-03-29T09:43:33.094Z</time></trkpt><trkpt lat="45.4670668" lon="11.2248493"><ele>279.5</ele><time>2026-03-29T09:43:36.102Z</time></trkpt><trkpt lat="45.4670384" lon="11.2247484"><ele>279.0</ele><time>2026-03-29T09:43:39.106Z</time></trkpt><trkpt lat="45.467021" lon="11.2246359"><ele>278.5</ele><time>2026-03-29T09:43:43.086Z</time></trkpt><trkpt lat="45.4670227" lon="11.2245207"><ele>278.0</ele><time>2026-03-29T09:43:47.099Z</time></trkpt><trkpt lat="45.4670355" lon="11.2244129"><ele>277.5</ele><time>2026-03-29T09:43:51.101Z</time></trkpt><trkpt lat="45.467027" lon="11.2242759"><ele>277.0</ele><time>2026-03-29T09:43:54.099Z</time></trkpt><trkpt lat="45.4670095" lon="11.224161"><ele>277.0</ele><time>2026-03-29T09:43:56.095Z</time></trkpt><trkpt lat="45.4669838" lon="11.2240465"><ele>277.0</ele><time>2026-03-29T09:43:58.097Z</time></trkpt><trkpt lat="45.4669633" lon="11.2239313"><ele>277.0</ele><time>2026-03-29T09:44:00.097Z</time></trkpt><trkpt lat="45.4669401" lon="11.2238136"><ele>277.0</ele><time>2026-03-29T09:44:02.092Z</time></trkpt><trkpt lat="45.4669124" lon="11.2237316"><ele>277.0</ele><time>2026-03-29T09:44:04.127Z</time></trkpt><trkpt lat="45.4668835" lon="11.2236014"><ele>277.0</ele><time>2026-03-29T09:44:07.127Z</time></trkpt><trkpt lat="45.466851" lon="11.2235207"><ele>275.0</ele><time>2026-03-29T09:44:10.133Z</time></trkpt><trkpt lat="45.4668234" lon="11.2234283"><ele>273.0</ele><time>2026-03-29T09:44:13.094Z</time></trkpt><trkpt lat="45.4668018" lon="11.2233022"><ele>271.0</ele><time>2026-03-29T09:44:16.092Z</time></trkpt><trkpt lat="45.4667584" lon="11.2231904"><ele>269.0</ele><time>2026-03-29T09:44:18.1Z</time></trkpt><trkpt lat="45.4667015" lon="11.2231425"><ele>267.0</ele><time>2026-03-29T09:44:21.096Z</time></trkpt><trkpt lat="45.466731" lon="11.222977"><ele>265.0</ele><time>2026-03-29T09:46:02.087Z</time></trkpt><trkpt lat="45.4666813" lon="11.2228244"><ele>262.4</ele><time>2026-03-29T09:46:04.093Z</time></trkpt><trkpt lat="45.4666595" lon="11.222659"><ele>259.8</ele><time>2026-03-29T09:46:06.1Z</time></trkpt><trkpt lat="45.4666773" lon="11.2224146"><ele>257.2</ele><time>2026-03-29T09:46:09.097Z</time></trkpt><trkpt lat="45.4666747" lon="11.2223165"><ele>254.6</ele><time>2026-03-29T09:46:10.086Z</time></trkpt><trkpt lat="45.4666617" lon="11.2222165"><ele>252.0</ele><time>2026-03-29T09:46:11.092Z</time></trkpt><trkpt lat="45.4666423" lon="11.2221221"><ele>250.16666666666666</ele><time>2026-03-29T09:46:12.112Z</time></trkpt><trkpt lat="45.4665989" lon="11.2220203"><ele>248.33333333333331</ele><time>2026-03-29T09:46:13.092Z</time></trkpt><trkpt lat="45.4665843" lon="11.2219233"><ele>246.5</ele><time>2026-03-29T09:46:14.1Z</time></trkpt><trkpt lat="45.4665684" lon="11.221823"><ele>244.66666666666666</ele><time>2026-03-29T09:46:15.086Z</time></trkpt><trkpt lat="45.4665433" lon="11.2216775"><ele>242.83333333333331</ele><time>2026-03-29T09:46:16.115Z</time></trkpt><trkpt lat="45.4665163" lon="11.2215629"><ele>241.0</ele><time>2026-03-29T09:46:17.094Z</time></trkpt><trkpt lat="45.4664898" lon="11.221437"><ele>238.99999999999997</ele><time>2026-03-29T09:46:18.082Z</time></trkpt><trkpt lat="45.4665061" lon="11.2213068"><ele>237.0</ele><time>2026-03-29T09:46:19.1Z</time></trkpt><trkpt lat="45.4665002" lon="11.2212128"><ele>235.0</ele><time>2026-03-29T09:46:20.098Z</time></trkpt><trkpt lat="45.4664917" lon="11.2210873"><ele>233.0</ele><time>2026-03-29T09:46:21.101Z</time></trkpt><trkpt lat="45.4664679" lon="11.220972"><ele>230.99999999999997</ele><time>2026-03-29T09:46:22.092Z</time></trkpt><trkpt lat="45.4664417" lon="11.2208846"><ele>229.0</ele><time>2026-03-29T09:46:23.098Z</time></trkpt><trkpt lat="45.466439" lon="11.2207831"><ele>228.99999999999997</ele><time>2026-03-29T09:46:24.111Z</time></trkpt><trkpt lat="45.4664508" lon="11.2206789"><ele>229.0</ele><time>2026-03-29T09:46:25.1Z</time></trkpt><trkpt lat="45.466418" lon="11.2205038"><ele>229.0</ele><time>2026-03-29T09:46:27.104Z</time></trkpt><trkpt lat="45.4663803" lon="11.2204262"><ele>229.0</ele><time>2026-03-29T09:46:28.1Z</time></trkpt><trkpt lat="45.466343" lon="11.2202821"><ele>228.99999999999997</ele><time>2026-03-29T09:46:30.083Z</time></trkpt><trkpt lat="45.4663073" lon="11.2202076"><ele>229.0</ele><time>2026-03-29T09:46:31.09Z</time></trkpt><trkpt lat="45.4662569" lon="11.2201395"><ele>226.66666666666666</ele><time>2026-03-29T09:46:32.099Z</time></trkpt><trkpt lat="45.4661911" lon="11.2200511"><ele>224.33333333333331</ele><time>2026-03-29T09:46:33.096Z</time></trkpt><trkpt lat="45.4661129" lon="11.2199792"><ele>222.0</ele><time>2026-03-29T09:46:34.096Z</time></trkpt><trkpt lat="45.4660546" lon="11.2199006"><ele>219.66666666666669</ele><time>2026-03-29T09:46:35.098Z</time></trkpt><trkpt lat="45.466006" lon="11.2197929"><ele>217.33333333333334</ele><time>2026-03-29T09:46:36.096Z</time></trkpt><trkpt lat="45.4659376" lon="11.219731"><ele>215.0</ele><time>2026-03-29T09:46:37.101Z</time></trkpt><trkpt lat="45.4658911" lon="11.219648"><ele>212.8</ele><time>2026-03-29T09:46:38.099Z</time></trkpt><trkpt lat="45.465818" lon="11.2195237"><ele>210.6</ele><time>2026-03-29T09:46:40.097Z</time></trkpt><trkpt lat="45.4657939" lon="11.2194398"><ele>208.39999999999998</ele><time>2026-03-29T09:46:41.098Z</time></trkpt><trkpt lat="45.4657559" lon="11.2193362"><ele>206.2</ele><time>2026-03-29T09:46:42.099Z</time></trkpt><trkpt lat="45.4657063" lon="11.2191837"><ele>204.0</ele><time>2026-03-29T09:46:44.09Z</time></trkpt><trkpt lat="45.465666" lon="11.2190398"><ele>202.0</ele><time>2026-03-29T09:46:46.096Z</time></trkpt><trkpt lat="45.46565" lon="11.2189434"><ele>200.0</ele><time>2026-03-29T09:46:47.102Z</time></trkpt><trkpt lat="45.465631" lon="11.2188502"><ele>198.0</ele><time>2026-03-29T09:46:48.128Z</time></trkpt><trkpt lat="45.465636" lon="11.2187189"><ele>196.0</ele><time>2026-03-29T09:46:50.107Z</time></trkpt><trkpt lat="45.4656341" lon="11.2186165"><ele>194.0</ele><time>2026-03-29T09:46:52.088Z</time></trkpt><trkpt lat="45.4656884" lon="11.2185427"><ele>192.0</ele><time>2026-03-29T09:47:04.099Z</time></trkpt><trkpt lat="45.4656703" lon="11.2184005"><ele>192.0</ele><time>2026-03-29T09:47:06.103Z</time></trkpt><trkpt lat="45.465618" lon="11.2182547"><ele>192.0</ele><time>2026-03-29T09:47:08.096Z</time></trkpt><trkpt lat="45.4655189" lon="11.2181366"><ele>192.0</ele><time>2026-03-29T09:47:10.091Z</time></trkpt><trkpt lat="45.4653981" lon="11.2180568"><ele>192.0</ele><time>2026-03-29T09:47:12.099Z</time></trkpt><trkpt lat="45.4653434" lon="11.2180007"><ele>192.0</ele><time>2026-03-29T09:47:13.096Z</time></trkpt><trkpt lat="45.4652773" lon="11.2179312"><ele>189.33333333333334</ele><time>2026-03-29T09:47:14.097Z</time></trkpt><trkpt lat="45.4652124" lon="11.2178637"><ele>186.66666666666666</ele><time>2026-03-29T09:47:15.112Z</time></trkpt><trkpt lat="45.4651073" lon="11.2177689"><ele>184.0</ele><time>2026-03-29T09:47:17.092Z</time></trkpt><trkpt lat="45.4650416" lon="11.2177158"><ele>181.33333333333331</ele><time>2026-03-29T09:47:18.105Z</time></trkpt><trkpt lat="45.4649892" lon="11.2176613"><ele>178.66666666666666</ele><time>2026-03-29T09:47:19.087Z</time></trkpt><trkpt lat="45.4648952" lon="11.2176098"><ele>176.0</ele><time>2026-03-29T09:47:21.099Z</time></trkpt><trkpt lat="45.4648124" lon="11.2175265"><ele>176.0</ele><time>2026-03-29T09:47:23.087Z</time></trkpt><trkpt lat="45.4647289" lon="11.2174567"><ele>176.0</ele><time>2026-03-29T09:47:25.159Z</time></trkpt><trkpt lat="45.4646623" lon="11.2173977"><ele>176.0</ele><time>2026-03-29T09:47:27.098Z</time></trkpt><trkpt lat="45.4646007" lon="11.2173356"><ele>176.0</ele><time>2026-03-29T09:47:31.155Z</time></trkpt><trkpt lat="45.4646108" lon="11.2172466"><ele>176.0</ele><time>2026-03-29T09:47:34.104Z</time></trkpt><trkpt lat="45.4646389" lon="11.2171153"><ele>176.0</ele><time>2026-03-29T09:47:37.088Z</time></trkpt><trkpt lat="45.4646201" lon="11.2169974"><ele>171.0</ele><time>2026-03-29T09:47:39.099Z</time></trkpt><trkpt lat="45.4645792" lon="11.2169268"><ele>166.0</ele><time>2026-03-29T09:47:40.152Z</time></trkpt><trkpt lat="45.4645726" lon="11.2167928"><ele>161.0</ele><time>2026-03-29T09:47:42.103Z</time></trkpt><trkpt lat="45.4645611" lon="11.2166351"><ele>156.0</ele><time>2026-03-29T09:47:44.113Z</time></trkpt><trkpt lat="45.4645423" lon="11.2164875"><ele>151.0</ele><time>2026-03-29T09:47:46.091Z</time></trkpt><trkpt lat="45.4645073" lon="11.2163418"><ele>149.2</ele><time>2026-03-29T09:47:48.092Z</time></trkpt><trkpt lat="45.464469" lon="11.2161914"><ele>147.39999999999998</ele><time>2026-03-29T09:47:50.095Z</time></trkpt><trkpt lat="45.4644285" lon="11.2160484"><ele>145.6</ele><time>2026-03-29T09:47:52.105Z</time></trkpt><trkpt lat="45.464385" lon="11.2159022"><ele>143.79999999999998</ele><time>2026-03-29T09:47:54.087Z</time></trkpt><trkpt lat="45.4643744" lon="11.2157894"><ele>142.0</ele><time>2026-03-29T09:47:56.122Z</time></trkpt><trkpt lat="45.4643351" lon="11.215675"><ele>140.2</ele><time>2026-03-29T09:47:58.088Z</time></trkpt><trkpt lat="45.4643459" lon="11.2155511"><ele>138.39999999999998</ele><time>2026-03-29T09:48:00.14Z</time></trkpt><trkpt lat="45.4643505" lon="11.2154354"><ele>136.60000000000002</ele><time>2026-03-29T09:48:02.093Z</time></trkpt><trkpt lat="45.4643978" lon="11.2152871"><ele>134.8</ele><time>2026-03-29T09:48:04.095Z</time></trkpt><trkpt lat="45.464454" lon="11.2151755"><ele>133.0</ele><time>2026-03-29T09:48:06.094Z</time></trkpt><trkpt lat="45.4644905" lon="11.2150765"><ele>133.0</ele><time>2026-03-29T09:48:08.085Z</time></trkpt><trkpt lat="45.4645511" lon="11.2150305"><ele>133.0</ele><time>2026-03-29T09:48:10.103Z</time></trkpt><trkpt lat="45.464608" lon="11.214952"><ele>133.0</ele><time>2026-03-29T09:48:12.085Z</time></trkpt><trkpt lat="45.4647056" lon="11.2148813"><ele>133.0</ele><time>2026-03-29T09:48:14.087Z</time></trkpt><trkpt lat="45.4647762" lon="11.2148406"><ele>133.0</ele><time>2026-03-29T09:48:15.086Z</time></trkpt><trkpt lat="45.4648571" lon="11.2147495"><ele>133.0</ele><time>2026-03-29T09:48:17.091Z</time></trkpt><trkpt lat="45.4649252" lon="11.2147019"><ele>130.5</ele><time>2026-03-29T09:48:18.092Z</time></trkpt><trkpt lat="45.4649708" lon="11.2146322"><ele>128.0</ele><time>2026-03-29T09:48:20.104Z</time></trkpt><trkpt lat="45.4649776" lon="11.2145142"><ele>125.5</ele><time>2026-03-29T09:48:22.097Z</time></trkpt><trkpt lat="45.4650227" lon="11.2144113"><ele>123.0</ele><time>2026-03-29T09:48:24.141Z</time></trkpt><trkpt lat="45.4650605" lon="11.2143326"><ele>120.50000000000001</ele><time>2026-03-29T09:48:25.09Z</time></trkpt><trkpt lat="45.4651009" lon="11.2142078"><ele>118.0</ele><time>2026-03-29T09:48:26.098Z</time></trkpt><trkpt lat="45.4651689" lon="11.2140467"><ele>115.4</ele><time>2026-03-29T09:48:28.094Z</time></trkpt><trkpt lat="45.4651593" lon="11.2138815"><ele>112.80000000000001</ele><time>2026-03-29T09:48:30.096Z</time></trkpt><trkpt lat="45.465209" lon="11.2137959"><ele>110.2</ele><time>2026-03-29T09:48:31.093Z</time></trkpt><trkpt lat="45.4652242" lon="11.2137003"><ele>107.6</ele><time>2026-03-29T09:48:32.096Z</time></trkpt><trkpt lat="45.4652791" lon="11.2134984"><ele>105.0</ele><time>2026-03-29T09:48:34.103Z</time></trkpt><trkpt lat="45.4652968" lon="11.2133944"><ele>105.0</ele><time>2026-03-29T09:48:35.094Z</time></trkpt><trkpt lat="45.4653221" lon="11.2132987"><ele>105.0</ele><time>2026-03-29T09:48:36.099Z</time></trkpt><trkpt lat="45.465334" lon="11.2132026"><ele>105.0</ele><time>2026-03-29T09:48:37.096Z</time></trkpt><trkpt lat="45.4653264" lon="11.2130898"><ele>105.0</ele><time>2026-03-29T09:48:38.097Z</time></trkpt><trkpt lat="45.4653289" lon="11.2130001"><ele>105.0</ele><time>2026-03-29T09:48:39.088Z</time></trkpt><trkpt lat="45.4653024" lon="11.2128423"><ele>105.0</ele><time>2026-03-29T09:48:41.1Z</time></trkpt><trkpt lat="45.4652776" lon="11.2126872"><ele>102.8</ele><time>2026-03-29T09:48:43.096Z</time></trkpt><trkpt lat="45.4652513" lon="11.2125191"><ele>100.6</ele><time>2026-03-29T09:48:45.092Z</time></trkpt><trkpt lat="45.4652297" lon="11.2123412"><ele>98.4</ele><time>2026-03-29T09:48:47.097Z</time></trkpt><trkpt lat="45.4652147" lon="11.2122508"><ele>96.2</ele><time>2026-03-29T09:48:48.083Z</time></trkpt><trkpt lat="45.4652019" lon="11.2121574"><ele>94.0</ele><time>2026-03-29T09:48:49.1Z</time></trkpt><trkpt lat="45.4651936" lon="11.2120532"><ele>93.42857142857143</ele><time>2026-03-29T09:48:50.098Z</time></trkpt><trkpt lat="45.4651814" lon="11.2119641"><ele>92.85714285714286</ele><time>2026-03-29T09:48:51.105Z</time></trkpt><trkpt lat="45.4651695" lon="11.2118732"><ele>92.28571428571428</ele><time>2026-03-29T09:48:52.095Z</time></trkpt><trkpt lat="45.4651733" lon="11.2117804"><ele>91.71428571428572</ele><time>2026-03-29T09:48:53.098Z</time></trkpt><trkpt lat="45.4651514" lon="11.2116927"><ele>91.14285714285715</ele><time>2026-03-29T09:48:54.091Z</time></trkpt><trkpt lat="45.465144" lon="11.2115543"><ele>90.57142857142857</ele><time>2026-03-29T09:48:56.074Z</time></trkpt><trkpt lat="45.4652274" lon="11.2115025"><ele>90.0</ele><time>2026-03-29T09:48:57.093Z</time></trkpt><trkpt lat="45.4652756" lon="11.2114408"><ele>90.0</ele><time>2026-03-29T09:48:58.092Z</time></trkpt><trkpt lat="45.4653195" lon="11.2113719"><ele>90.0</ele><time>2026-03-29T09:48:59.084Z</time></trkpt><trkpt lat="45.4653869" lon="11.2112448"><ele>90.0</ele><time>2026-03-29T09:49:01.156Z</time></trkpt><trkpt lat="45.4654554" lon="11.2111178"><ele>90.0</ele><time>2026-03-29T09:49:03.102Z</time></trkpt><trkpt lat="45.4654965" lon="11.210972"><ele>90.0</ele><time>2026-03-29T09:49:05.1Z</time></trkpt><trkpt lat="45.4655367" lon="11.2108598"><ele>90.0</ele><time>2026-03-29T09:49:07.111Z</time></trkpt><trkpt lat="45.4655826" lon="11.2107401"><ele>90.0</ele><time>2026-03-29T09:49:09.096Z</time></trkpt><trkpt lat="45.4656557" lon="11.2106334"><ele>90.0</ele><time>2026-03-29T09:49:11.098Z</time></trkpt><trkpt lat="45.4656994" lon="11.2105548"><ele>90.0</ele><time>2026-03-29T09:49:13.087Z</time></trkpt><trkpt lat="45.4657665" lon="11.2104806"><ele>90.0</ele><time>2026-03-29T09:49:15.096Z</time></trkpt><trkpt lat="45.4658398" lon="11.2103702"><ele>89.8</ele><time>2026-03-29T09:49:18.084Z</time></trkpt><trkpt lat="45.4659196" lon="11.2102793"><ele>89.6</ele><time>2026-03-29T09:49:20.085Z</time></trkpt><trkpt lat="45.4660087" lon="11.2101881"><ele>89.4</ele><time>2026-03-29T09:49:22.107Z</time></trkpt><trkpt lat="45.4661015" lon="11.2100931"><ele>89.2</ele><time>2026-03-29T09:49:24.152Z</time></trkpt><trkpt lat="45.4661725" lon="11.2099928"><ele>89.0</ele><time>2026-03-29T09:49:26.101Z</time></trkpt><trkpt lat="45.4662431" lon="11.2099"><ele>89.0</ele><time>2026-03-29T09:49:28.089Z</time></trkpt><trkpt lat="45.466288" lon="11.209811"><ele>89.0</ele><time>2026-03-29T09:49:30.093Z</time></trkpt><trkpt lat="45.4663233" lon="11.2096941"><ele>89.0</ele><time>2026-03-29T09:49:32.103Z</time></trkpt><trkpt lat="45.4664051" lon="11.2095764"><ele>89.0</ele><time>2026-03-29T09:49:34.095Z</time></trkpt><trkpt lat="45.4664935" lon="11.2094535"><ele>89.0</ele><time>2026-03-29T09:49:36.109Z</time></trkpt><trkpt lat="45.4665561" lon="11.209344"><ele>89.0</ele><time>2026-03-29T09:49:38.096Z</time></trkpt><trkpt lat="45.4666195" lon="11.2092871"><ele>89.0</ele><time>2026-03-29T09:49:39.101Z</time></trkpt><trkpt lat="45.4666406" lon="11.2091854"><ele>89.0</ele><time>2026-03-29T09:49:41.102Z</time></trkpt><trkpt lat="45.4666849" lon="11.2090912"><ele>89.0</ele><time>2026-03-29T09:49:43.09Z</time></trkpt><trkpt lat="45.46675" lon="11.2090003"><ele>89.0</ele><time>2026-03-29T09:49:45.147Z</time></trkpt><trkpt lat="45.4668398" lon="11.2089366"><ele>89.0</ele><time>2026-03-29T09:49:47.098Z</time></trkpt><trkpt lat="45.4669582" lon="11.20887"><ele>89.16666666666667</ele><time>2026-03-29T09:49:49.09Z</time></trkpt><trkpt lat="45.4670423" lon="11.2087959"><ele>89.33333333333334</ele><time>2026-03-29T09:49:51.089Z</time></trkpt><trkpt lat="45.4671259" lon="11.2087747"><ele>89.5</ele><time>2026-03-29T09:49:53.093Z</time></trkpt><trkpt lat="45.4672196" lon="11.2087478"><ele>89.66666666666667</ele><time>2026-03-29T09:49:55.11Z</time></trkpt><trkpt lat="45.4672875" lon="11.2087292"><ele>89.83333333333333</ele><time>2026-03-29T09:49:57.091Z</time></trkpt><trkpt lat="45.4673429" lon="11.2087975"><ele>90.0</ele><time>2026-03-29T09:50:01.086Z</time></trkpt><trkpt lat="45.4673304" lon="11.2089035"><ele>90.0</ele><time>2026-03-29T09:50:04.095Z</time></trkpt><trkpt lat="45.4673105" lon="11.2090086"><ele>90.0</ele><time>2026-03-29T09:50:08.079Z</time></trkpt><trkpt lat="45.4673256" lon="11.2091194"><ele>90.0</ele><time>2026-03-29T09:50:12.082Z</time></trkpt><trkpt lat="45.4673296" lon="11.2092146"><ele>90.0</ele><time>2026-03-29T09:50:15.083Z</time></trkpt><trkpt lat="45.4673471" lon="11.2093019"><ele>90.0</ele><time>2026-03-29T09:50:19.088Z</time></trkpt><trkpt lat="45.4673524" lon="11.2091778"><ele>90.0</ele><time>2026-03-29T09:50:27.083Z</time></trkpt><trkpt lat="45.4673521" lon="11.209075"><ele>90.0</ele><time>2026-03-29T09:50:29.083Z</time></trkpt><trkpt lat="45.4673477" lon="11.2089569"><ele>90.0</ele><time>2026-03-29T09:50:31.086Z</time></trkpt><trkpt lat="45.4673616" lon="11.2088414"><ele>90.0</ele><time>2026-03-29T09:50:33.083Z</time></trkpt><trkpt lat="45.4673939" lon="11.2087304"><ele>90.0</ele><time>2026-03-29T09:50:35.079Z</time></trkpt><trkpt lat="45.4674643" lon="11.2086607"><ele>90.0</ele><time>2026-03-29T09:50:37.089Z</time></trkpt><trkpt lat="45.4675472" lon="11.2086164"><ele>90.0</ele><time>2026-03-29T09:50:39.084Z</time></trkpt><trkpt lat="45.4676324" lon="11.2085555"><ele>90.0</ele><time>2026-03-29T09:50:41.092Z</time></trkpt><trkpt lat="45.467714" lon="11.2084852"><ele>90.0</ele><time>2026-03-29T09:50:43.073Z</time></trkpt><trkpt lat="45.4677702" lon="11.2084179"><ele>90.0</ele><time>2026-03-29T09:50:45.08Z</time></trkpt><trkpt lat="45.4678397" lon="11.208351"><ele>90.0</ele><time>2026-03-29T09:50:47.079Z</time></trkpt><trkpt lat="45.4678987" lon="11.2082592"><ele>90.0</ele><time>2026-03-29T09:50:49.089Z</time></trkpt><trkpt lat="45.4679638" lon="11.208176"><ele>90.0</ele><time>2026-03-29T09:50:52.09Z</time></trkpt><trkpt lat="45.4680265" lon="11.2081146"><ele>90.0</ele><time>2026-03-29T09:50:54.091Z</time></trkpt><trkpt lat="45.4680911" lon="11.2080304"><ele>90.0</ele><time>2026-03-29T09:50:56.079Z</time></trkpt><trkpt lat="45.4681547" lon="11.2079908"><ele>90.0</ele><time>2026-03-29T09:50:57.093Z</time></trkpt><trkpt lat="45.4682447" lon="11.207909"><ele>90.0</ele><time>2026-03-29T09:50:59.087Z</time></trkpt><trkpt lat="45.468306" lon="11.207818"><ele>90.0</ele><time>2026-03-29T09:51:01.079Z</time></trkpt><trkpt lat="45.4683502" lon="11.2077211"><ele>90.0</ele><time>2026-03-29T09:51:03.089Z</time></trkpt><trkpt lat="45.4683797" lon="11.2076038"><ele>90.0</ele><time>2026-03-29T09:51:06.094Z</time></trkpt><trkpt lat="45.4684493" lon="11.2074793"><ele>90.0</ele><time>2026-03-29T09:51:09.085Z</time></trkpt><trkpt lat="45.4684838" lon="11.2073828"><ele>90.0</ele><time>2026-03-29T09:51:12.09Z</time></trkpt><trkpt lat="45.4684858" lon="11.2072727"><ele>90.0</ele><time>2026-03-29T09:51:15.089Z</time></trkpt><trkpt lat="45.4684931" lon="11.2071759"><ele>90.0</ele><time>2026-03-29T09:51:17.092Z</time></trkpt><trkpt lat="45.4684359" lon="11.2071161"><ele>90.0</ele><time>2026-03-29T09:51:20.089Z</time></trkpt><trkpt lat="45.4684934" lon="11.2070729"><ele>90.0</ele><time>2026-03-29T09:51:26.092Z</time></trkpt><trkpt lat="45.4685603" lon="11.2070477"><ele>90.0</ele><time>2026-03-29T09:51:30.087Z</time></trkpt><trkpt lat="45.4686457" lon="11.2070349"><ele>90.0</ele><time>2026-03-29T09:51:34.086Z</time></trkpt><trkpt lat="45.4687736" lon="11.2069861"><ele>90.0</ele><time>2026-03-29T09:51:37.088Z</time></trkpt><trkpt lat="45.4688836" lon="11.2069554"><ele>90.0</ele><time>2026-03-29T09:51:39.084Z</time></trkpt><trkpt lat="45.4689907" lon="11.2069293"><ele>90.0</ele><time>2026-03-29T09:51:41.084Z</time></trkpt><trkpt lat="45.4690746" lon="11.2068972"><ele>90.0</ele><time>2026-03-29T09:51:43.097Z</time></trkpt><trkpt lat="45.4691461" lon="11.2068485"><ele>90.0</ele><time>2026-03-29T09:51:45.082Z</time></trkpt><trkpt lat="45.4692233" lon="11.2067959"><ele>90.0</ele><time>2026-03-29T09:51:47.098Z</time></trkpt><trkpt lat="45.4692966" lon="11.206724"><ele>90.0</ele><time>2026-03-29T09:51:49.089Z</time></trkpt><trkpt lat="45.4693795" lon="11.2066335"><ele>90.0</ele><time>2026-03-29T09:51:51.091Z</time></trkpt><trkpt lat="45.4694523" lon="11.2065464"><ele>90.0</ele><time>2026-03-29T09:51:53.094Z</time></trkpt><trkpt lat="45.4695264" lon="11.2064597"><ele>89.6</ele><time>2026-03-29T09:51:55.094Z</time></trkpt><trkpt lat="45.4695885" lon="11.2063758"><ele>89.2</ele><time>2026-03-29T09:51:57.082Z</time></trkpt><trkpt lat="45.4696461" lon="11.2062728"><ele>88.80000000000001</ele><time>2026-03-29T09:51:59.091Z</time></trkpt><trkpt lat="45.4697066" lon="11.2061942"><ele>88.4</ele><time>2026-03-29T09:52:01.087Z</time></trkpt><trkpt lat="45.46976" lon="11.2060726"><ele>88.0</ele><time>2026-03-29T09:52:03.096Z</time></trkpt><trkpt lat="45.4698301" lon="11.2059838"><ele>88.83333333333333</ele><time>2026-03-29T09:52:05.079Z</time></trkpt><trkpt lat="45.4698917" lon="11.2058999"><ele>89.66666666666666</ele><time>2026-03-29T09:52:07.082Z</time></trkpt><trkpt lat="45.469966" lon="11.2058196"><ele>90.5</ele><time>2026-03-29T09:52:09.098Z</time></trkpt><trkpt lat="45.4700347" lon="11.205734"><ele>91.33333333333333</ele><time>2026-03-29T09:52:11.08Z</time></trkpt><trkpt lat="45.4701038" lon="11.2056591"><ele>92.16666666666667</ele><time>2026-03-29T09:52:13.082Z</time></trkpt><trkpt lat="45.4701617" lon="11.2055859"><ele>93.0</ele><time>2026-03-29T09:52:15.09Z</time></trkpt><trkpt lat="45.4702217" lon="11.2055106"><ele>93.0</ele><time>2026-03-29T09:52:17.097Z</time></trkpt><trkpt lat="45.470297" lon="11.2054413"><ele>93.0</ele><time>2026-03-29T09:52:19.103Z</time></trkpt><trkpt lat="45.4703679" lon="11.2053816"><ele>93.0</ele><time>2026-03-29T09:52:21.102Z</time></trkpt><trkpt lat="45.4704359" lon="11.2053001"><ele>93.0</ele><time>2026-03-29T09:52:23.092Z</time></trkpt><trkpt lat="45.4705041" lon="11.2052113"><ele>93.0</ele><time>2026-03-29T09:52:25.088Z</time></trkpt><trkpt lat="45.4705607" lon="11.2050878"><ele>93.4</ele><time>2026-03-29T09:52:27.094Z</time></trkpt><trkpt lat="45.4706133" lon="11.204982"><ele>93.80000000000001</ele><time>2026-03-29T09:52:29.086Z</time></trkpt><trkpt lat="45.4706562" lon="11.2048906"><ele>94.2</ele><time>2026-03-29T09:52:31.083Z</time></trkpt><trkpt lat="45.4707236" lon="11.2047754"><ele>94.6</ele><time>2026-03-29T09:52:33.095Z</time></trkpt><trkpt lat="45.4708015" lon="11.2046835"><ele>95.0</ele><time>2026-03-29T09:52:35.081Z</time></trkpt><trkpt lat="45.4709014" lon="11.2045695"><ele>95.0</ele><time>2026-03-29T09:52:37.093Z</time></trkpt><trkpt lat="45.4709504" lon="11.2045124"><ele>95.0</ele><time>2026-03-29T09:52:38.093Z</time></trkpt><trkpt lat="45.4709999" lon="11.2044538"><ele>95.0</ele><time>2026-03-29T09:52:39.108Z</time></trkpt><trkpt lat="45.4710543" lon="11.2044078"><ele>95.0</ele><time>2026-03-29T09:52:40.116Z</time></trkpt><trkpt lat="45.4711606" lon="11.204335"><ele>95.0</ele><time>2026-03-29T09:52:42.086Z</time></trkpt><trkpt lat="45.4712566" lon="11.2042703"><ele>95.0</ele><time>2026-03-29T09:52:44.089Z</time></trkpt><trkpt lat="45.4713381" lon="11.2042039"><ele>95.4</ele><time>2026-03-29T09:52:46.085Z</time></trkpt><trkpt lat="45.4714279" lon="11.2041238"><ele>95.8</ele><time>2026-03-29T09:52:48.09Z</time></trkpt><trkpt lat="45.4715163" lon="11.2040366"><ele>96.19999999999999</ele><time>2026-03-29T09:52:50.087Z</time></trkpt><trkpt lat="45.4715966" lon="11.2039337"><ele>96.6</ele><time>2026-03-29T09:52:52.097Z</time></trkpt><trkpt lat="45.471695" lon="11.2038587"><ele>97.0</ele><time>2026-03-29T09:52:54.094Z</time></trkpt><trkpt lat="45.4717522" lon="11.2038093"><ele>97.0</ele><time>2026-03-29T09:52:55.099Z</time></trkpt><trkpt lat="45.471868" lon="11.2037672"><ele>97.0</ele><time>2026-03-29T09:52:57.107Z</time></trkpt><trkpt lat="45.4719761" lon="11.2037189"><ele>97.0</ele><time>2026-03-29T09:52:59.114Z</time></trkpt><trkpt lat="45.4720695" lon="11.2036662"><ele>97.0</ele><time>2026-03-29T09:53:01.154Z</time></trkpt><trkpt lat="45.4721559" lon="11.2036393"><ele>97.0</ele><time>2026-03-29T09:53:03.122Z</time></trkpt><trkpt lat="45.4722417" lon="11.2036233"><ele>97.6</ele><time>2026-03-29T09:53:05.09Z</time></trkpt><trkpt lat="45.4723323" lon="11.2035789"><ele>98.19999999999999</ele><time>2026-03-29T09:53:07.14Z</time></trkpt><trkpt lat="45.4724249" lon="11.20353"><ele>98.8</ele><time>2026-03-29T09:53:09.109Z</time></trkpt><trkpt lat="45.4725148" lon="11.2034876"><ele>99.4</ele><time>2026-03-29T09:53:11.091Z</time></trkpt><trkpt lat="45.4726037" lon="11.2034419"><ele>100.0</ele><time>2026-03-29T09:53:13.154Z</time></trkpt><trkpt lat="45.4726823" lon="11.2033732"><ele>100.0</ele><time>2026-03-29T09:53:15.089Z</time></trkpt><trkpt lat="45.472754" lon="11.2033284"><ele>100.0</ele><time>2026-03-29T09:53:17.085Z</time></trkpt><trkpt lat="45.4728424" lon="11.2033014"><ele>100.0</ele><time>2026-03-29T09:53:19.081Z</time></trkpt><trkpt lat="45.4729034" lon="11.2031581"><ele>100.0</ele><time>2026-03-29T09:53:21.101Z</time></trkpt><trkpt lat="45.4728933" lon="11.2029923"><ele>100.0</ele><time>2026-03-29T09:53:23.098Z</time></trkpt><trkpt lat="45.4728724" lon="11.2029004"><ele>100.0</ele><time>2026-03-29T09:53:24.091Z</time></trkpt><trkpt lat="45.4728389" lon="11.2028241"><ele>100.0</ele><time>2026-03-29T09:53:25.087Z</time></trkpt><trkpt lat="45.4727845" lon="11.2026821"><ele>100.0</ele><time>2026-03-29T09:53:27.087Z</time></trkpt><trkpt lat="45.4727507" lon="11.2025445"><ele>100.0</ele><time>2026-03-29T09:53:29.13Z</time></trkpt><trkpt lat="45.4727318" lon="11.202411"><ele>100.0</ele><time>2026-03-29T09:53:31.138Z</time></trkpt><trkpt lat="45.4727148" lon="11.2022933"><ele>100.57142857142858</ele><time>2026-03-29T09:53:33.085Z</time></trkpt><trkpt lat="45.4726878" lon="11.202191"><ele>101.14285714285714</ele><time>2026-03-29T09:53:35.094Z</time></trkpt><trkpt lat="45.4726666" lon="11.2020721"><ele>101.71428571428572</ele><time>2026-03-29T09:53:38.14Z</time></trkpt><trkpt lat="45.472638" lon="11.2019866"><ele>102.28571428571429</ele><time>2026-03-29T09:53:40.148Z</time></trkpt><trkpt lat="45.4726087" lon="11.2019053"><ele>102.85714285714286</ele><time>2026-03-29T09:53:42.092Z</time></trkpt><trkpt lat="45.472583" lon="11.2018156"><ele>103.42857142857143</ele><time>2026-03-29T09:53:44.091Z</time></trkpt><trkpt lat="45.472542" lon="11.2017092"><ele>104.0</ele><time>2026-03-29T09:53:46.105Z</time></trkpt><trkpt lat="45.4725105" lon="11.2016053"><ele>103.99999999999999</ele><time>2026-03-29T09:53:48.103Z</time></trkpt><trkpt lat="45.4724802" lon="11.2014991"><ele>104.0</ele><time>2026-03-29T09:53:50.134Z</time></trkpt><trkpt lat="45.4724358" lon="11.2013913"><ele>104.0</ele><time>2026-03-29T09:53:52.087Z</time></trkpt><trkpt lat="45.4723992" lon="11.2012872"><ele>104.0</ele><time>2026-03-29T09:53:54.141Z</time></trkpt><trkpt lat="45.4723858" lon="11.2011662"><ele>103.99999999999999</ele><time>2026-03-29T09:53:56.094Z</time></trkpt><trkpt lat="45.4723897" lon="11.2010449"><ele>104.0</ele><time>2026-03-29T09:53:58.152Z</time></trkpt><trkpt lat="45.4724025" lon="11.2009342"><ele>104.71428571428571</ele><time>2026-03-29T09:54:00.159Z</time></trkpt><trkpt lat="45.4724185" lon="11.2008419"><ele>105.42857142857143</ele><time>2026-03-29T09:54:02.102Z</time></trkpt><trkpt lat="45.4724666" lon="11.2007699"><ele>106.14285714285714</ele><time>2026-03-29T09:54:04.127Z</time></trkpt><trkpt lat="45.4725146" lon="11.2006994"><ele>106.85714285714286</ele><time>2026-03-29T09:54:06.115Z</time></trkpt><trkpt lat="45.4725735" lon="11.2006396"><ele>107.57142857142858</ele><time>2026-03-29T09:54:08.083Z</time></trkpt><trkpt lat="45.4726455" lon="11.2005941"><ele>108.28571428571429</ele><time>2026-03-29T09:54:10.106Z</time></trkpt><trkpt lat="45.4727197" lon="11.2005515"><ele>109.0</ele><time>2026-03-29T09:54:12.085Z</time></trkpt><trkpt lat="45.4727954" lon="11.2004878"><ele>110.50000000000001</ele><time>2026-03-29T09:54:14.093Z</time></trkpt><trkpt lat="45.4728618" lon="11.2004174"><ele>112.0</ele><time>2026-03-29T09:54:16.133Z</time></trkpt><trkpt lat="45.4729273" lon="11.2003237"><ele>113.5</ele><time>2026-03-29T09:54:18.086Z</time></trkpt><trkpt lat="45.4729835" lon="11.2002212"><ele>115.0</ele><time>2026-03-29T09:54:20.117Z</time></trkpt><trkpt lat="45.4730283" lon="11.2001273"><ele>116.50000000000001</ele><time>2026-03-29T09:54:22.119Z</time></trkpt><trkpt lat="45.4730771" lon="11.2000267"><ele>118.0</ele><time>2026-03-29T09:54:24.102Z</time></trkpt><trkpt lat="45.4731467" lon="11.1998868"><ele>120.00000000000001</ele><time>2026-03-29T09:54:27.163Z</time></trkpt><trkpt lat="45.473202" lon="11.1997943"><ele>122.0</ele><time>2026-03-29T09:54:29.096Z</time></trkpt><trkpt lat="45.47326" lon="11.1997122"><ele>124.0</ele><time>2026-03-29T09:54:31.143Z</time></trkpt><trkpt lat="45.4733197" lon="11.1996569"><ele>126.0</ele><time>2026-03-29T09:54:33.088Z</time></trkpt><trkpt lat="45.4733939" lon="11.1996289"><ele>128.0</ele><time>2026-03-29T09:54:35.132Z</time></trkpt><trkpt lat="45.4734662" lon="11.1996001"><ele>130.0</ele><time>2026-03-29T09:54:37.121Z</time></trkpt><trkpt lat="45.4735349" lon="11.1995472"><ele>130.0</ele><time>2026-03-29T09:54:39.093Z</time></trkpt><trkpt lat="45.4735882" lon="11.1994559"><ele>130.0</ele><time>2026-03-29T09:54:41.122Z</time></trkpt><trkpt lat="45.4736086" lon="11.1993615"><ele>130.0</ele><time>2026-03-29T09:54:43.089Z</time></trkpt><trkpt lat="45.4735991" lon="11.199266"><ele>130.0</ele><time>2026-03-29T09:54:45.136Z</time></trkpt><trkpt lat="45.4735815" lon="11.199163"><ele>130.0</ele><time>2026-03-29T09:54:47.086Z</time></trkpt><trkpt lat="45.4735734" lon="11.1990526"><ele>130.0</ele><time>2026-03-29T09:54:49.091Z</time></trkpt><trkpt lat="45.4735832" lon="11.1989348"><ele>131.16666666666669</ele><time>2026-03-29T09:54:51.135Z</time></trkpt><trkpt lat="45.4736068" lon="11.1988062"><ele>132.33333333333334</ele><time>2026-03-29T09:54:53.08Z</time></trkpt><trkpt lat="45.4736284" lon="11.1986873"><ele>133.5</ele><time>2026-03-29T09:54:55.086Z</time></trkpt><trkpt lat="45.4736844" lon="11.1986065"><ele>134.66666666666666</ele><time>2026-03-29T09:54:57.134Z</time></trkpt><trkpt lat="45.4737222" lon="11.1985277"><ele>135.83333333333331</ele><time>2026-03-29T09:54:59.145Z</time></trkpt><trkpt lat="45.4737679" lon="11.1984112"><ele>137.0</ele><time>2026-03-29T09:55:02.104Z</time></trkpt><trkpt lat="45.4738007" lon="11.1982941"><ele>137.0</ele><time>2026-03-29T09:55:05.159Z</time></trkpt><trkpt lat="45.4738271" lon="11.1981987"><ele>137.0</ele><time>2026-03-29T09:55:08.152Z</time></trkpt><trkpt lat="45.4738366" lon="11.1980649"><ele>137.0</ele><time>2026-03-29T09:55:11.1Z</time></trkpt><trkpt lat="45.4738771" lon="11.1979479"><ele>137.0</ele><time>2026-03-29T09:55:14.079Z</time></trkpt><trkpt lat="45.4739287" lon="11.1978476"><ele>137.0</ele><time>2026-03-29T09:55:17.101Z</time></trkpt><trkpt lat="45.4739726" lon="11.1977373"><ele>137.0</ele><time>2026-03-29T09:55:20.139Z</time></trkpt><trkpt lat="45.4740214" lon="11.197624"><ele>140.79999999999998</ele><time>2026-03-29T09:55:23.09Z</time></trkpt><trkpt lat="45.4740813" lon="11.1974655"><ele>144.6</ele><time>2026-03-29T09:55:27.096Z</time></trkpt><trkpt lat="45.4741567" lon="11.1973972"><ele>148.39999999999998</ele><time>2026-03-29T09:55:30.137Z</time></trkpt><trkpt lat="45.474233" lon="11.1973776"><ele>152.2</ele><time>2026-03-29T09:55:33.091Z</time></trkpt><trkpt lat="45.4743163" lon="11.1973575"><ele>156.0</ele><time>2026-03-29T09:55:36.165Z</time></trkpt><trkpt lat="45.4743954" lon="11.1973499"><ele>160.16666666666666</ele><time>2026-03-29T09:55:39.148Z</time></trkpt><trkpt lat="45.4744791" lon="11.1973316"><ele>164.33333333333334</ele><time>2026-03-29T09:55:42.093Z</time></trkpt><trkpt lat="45.4745512" lon="11.197288"><ele>168.5</ele><time>2026-03-29T09:55:45.091Z</time></trkpt><trkpt lat="45.474649" lon="11.1972434"><ele>172.66666666666669</ele><time>2026-03-29T09:55:49.094Z</time></trkpt><trkpt lat="45.4747134" lon="11.197188"><ele>176.83333333333334</ele><time>2026-03-29T09:55:52.103Z</time></trkpt><trkpt lat="45.4747882" lon="11.1971314"><ele>181.0</ele><time>2026-03-29T09:55:55.095Z</time></trkpt><trkpt lat="45.4748643" lon="11.1970842"><ele>181.0</ele><time>2026-03-29T09:55:58.084Z</time></trkpt><trkpt lat="45.4749225" lon="11.1970227"><ele>181.0</ele><time>2026-03-29T09:56:01.106Z</time></trkpt><trkpt lat="45.4749969" lon="11.1969654"><ele>181.0</ele><time>2026-03-29T09:56:04.093Z</time></trkpt><trkpt lat="45.4750604" lon="11.1968903"><ele>181.0</ele><time>2026-03-29T09:56:07.119Z</time></trkpt><trkpt lat="45.4751324" lon="11.1968488"><ele>181.0</ele><time>2026-03-29T09:56:10.118Z</time></trkpt><trkpt lat="45.4751996" lon="11.1967957"><ele>181.0</ele><time>2026-03-29T09:56:13.087Z</time></trkpt><trkpt lat="45.4752689" lon="11.1967412"><ele>181.0</ele><time>2026-03-29T09:56:16.124Z</time></trkpt><trkpt lat="45.4753438" lon="11.1966844"><ele>181.0</ele><time>2026-03-29T09:56:19.116Z</time></trkpt><trkpt lat="45.4754184" lon="11.1966183"><ele>181.0</ele><time>2026-03-29T09:56:22.12Z</time></trkpt><trkpt lat="45.4754916" lon="11.1965633"><ele>181.0</ele><time>2026-03-29T09:56:25.141Z</time></trkpt><trkpt lat="45.4755702" lon="11.1965076"><ele>181.0</ele><time>2026-03-29T09:56:28.106Z</time></trkpt><trkpt lat="45.4756398" lon="11.1964519"><ele>181.0</ele><time>2026-03-29T09:56:31.104Z</time></trkpt><trkpt lat="45.4757082" lon="11.1963747"><ele>184.5</ele><time>2026-03-29T09:56:34.129Z</time></trkpt><trkpt lat="45.4757824" lon="11.1963247"><ele>188.0</ele><time>2026-03-29T09:56:37.084Z</time></trkpt><trkpt lat="45.475857" lon="11.1962742"><ele>191.5</ele><time>2026-03-29T09:56:40.101Z</time></trkpt><trkpt lat="45.4759233" lon="11.1962134"><ele>195.0</ele><time>2026-03-29T09:56:43.098Z</time></trkpt><trkpt lat="45.4759913" lon="11.1961535"><ele>198.49999999999997</ele><time>2026-03-29T09:56:46.096Z</time></trkpt><trkpt lat="45.4760523" lon="11.1960791"><ele>202.0</ele><time>2026-03-29T09:56:49.092Z</time></trkpt><trkpt lat="45.476116" lon="11.1960228"><ele>201.99999999999997</ele><time>2026-03-29T09:56:52.085Z</time></trkpt><trkpt lat="45.4761998" lon="11.1959943"><ele>202.0</ele><time>2026-03-29T09:56:55.093Z</time></trkpt><trkpt lat="45.4762833" lon="11.1959428"><ele>202.0</ele><time>2026-03-29T09:56:58.093Z</time></trkpt><trkpt lat="45.4763777" lon="11.1959011"><ele>202.0</ele><time>2026-03-29T09:57:01.092Z</time></trkpt><trkpt lat="45.4764426" lon="11.195894"><ele>201.99999999999997</ele><time>2026-03-29T09:57:03.081Z</time></trkpt><trkpt lat="45.4765197" lon="11.1958594"><ele>202.0</ele><time>2026-03-29T09:57:05.134Z</time></trkpt><trkpt lat="45.4766052" lon="11.1958309"><ele>200.39999999999998</ele><time>2026-03-29T09:57:07.09Z</time></trkpt><trkpt lat="45.476693" lon="11.1957992"><ele>198.79999999999998</ele><time>2026-03-29T09:57:09.142Z</time></trkpt><trkpt lat="45.4768229" lon="11.195756"><ele>197.2</ele><time>2026-03-29T09:57:12.109Z</time></trkpt><trkpt lat="45.4769078" lon="11.1957121"><ele>195.6</ele><time>2026-03-29T09:57:14.087Z</time></trkpt><trkpt lat="45.4769917" lon="11.1956745"><ele>194.0</ele><time>2026-03-29T09:57:16.105Z</time></trkpt><trkpt lat="45.4770677" lon="11.1956278"><ele>196.66666666666669</ele><time>2026-03-29T09:57:18.094Z</time></trkpt><trkpt lat="45.4771405" lon="11.1955924"><ele>199.33333333333334</ele><time>2026-03-29T09:57:20.091Z</time></trkpt><trkpt lat="45.4772135" lon="11.1955432"><ele>202.0</ele><time>2026-03-29T09:57:22.092Z</time></trkpt><trkpt lat="45.4772794" lon="11.195473"><ele>204.66666666666669</ele><time>2026-03-29T09:57:24.091Z</time></trkpt><trkpt lat="45.4773486" lon="11.1954146"><ele>207.33333333333334</ele><time>2026-03-29T09:57:26.139Z</time></trkpt><trkpt lat="45.477403" lon="11.1953255"><ele>210.0</ele><time>2026-03-29T09:57:28.093Z</time></trkpt><trkpt lat="45.4774508" lon="11.1952317"><ele>210.0</ele><time>2026-03-29T09:57:30.139Z</time></trkpt><trkpt lat="45.4775083" lon="11.1951553"><ele>210.0</ele><time>2026-03-29T09:57:32.137Z</time></trkpt><trkpt lat="45.477558" lon="11.1950671"><ele>210.0</ele><time>2026-03-29T09:57:34.091Z</time></trkpt><trkpt lat="45.4776126" lon="11.1949848"><ele>210.0</ele><time>2026-03-29T09:57:36.115Z</time></trkpt><trkpt lat="45.4776612" lon="11.1949021"><ele>210.0</ele><time>2026-03-29T09:57:38.098Z</time></trkpt><trkpt lat="45.4777047" lon="11.1948152"><ele>210.0</ele><time>2026-03-29T09:57:40.142Z</time></trkpt><trkpt lat="45.477728" lon="11.1947004"><ele>211.42857142857142</ele><time>2026-03-29T09:57:42.166Z</time></trkpt><trkpt lat="45.4777357" lon="11.1946049"><ele>212.85714285714286</ele><time>2026-03-29T09:57:44.094Z</time></trkpt><trkpt lat="45.4777514" lon="11.1945151"><ele>214.28571428571428</ele><time>2026-03-29T09:57:46.09Z</time></trkpt><trkpt lat="45.4777751" lon="11.1944239"><ele>215.71428571428572</ele><time>2026-03-29T09:57:48.148Z</time></trkpt><trkpt lat="45.4777907" lon="11.1943296"><ele>217.14285714285714</ele><time>2026-03-29T09:57:50.087Z</time></trkpt><trkpt lat="45.4778006" lon="11.1942338"><ele>218.57142857142856</ele><time>2026-03-29T09:57:52.087Z</time></trkpt><trkpt lat="45.4778347" lon="11.1941567"><ele>220.0</ele><time>2026-03-29T09:57:54.089Z</time></trkpt><trkpt lat="45.4778706" lon="11.1940822"><ele>220.0</ele><time>2026-03-29T09:57:56.084Z</time></trkpt><trkpt lat="45.4779146" lon="11.1940139"><ele>220.0</ele><time>2026-03-29T09:57:58.095Z</time></trkpt><trkpt lat="45.4780685" lon="11.1938597"><ele>220.0</ele><time>2026-03-29T09:57:59.09Z</time></trkpt><trkpt lat="45.478157" lon="11.1936589"><ele>220.0</ele><time>2026-03-29T09:58:03.144Z</time></trkpt><trkpt lat="45.4781598" lon="11.1934919"><ele>219.0</ele><time>2026-03-29T09:58:05.091Z</time></trkpt><trkpt lat="45.4781752" lon="11.1934031"><ele>218.0</ele><time>2026-03-29T09:58:06.09Z</time></trkpt><trkpt lat="45.4782016" lon="11.1933046"><ele>217.0</ele><time>2026-03-29T09:58:07.092Z</time></trkpt><trkpt lat="45.4782553" lon="11.19314"><ele>216.0</ele><time>2026-03-29T09:58:09.088Z</time></trkpt><trkpt lat="45.4782449" lon="11.1930408"><ele>215.0</ele><time>2026-03-29T09:58:10.089Z</time></trkpt><trkpt lat="45.4782596" lon="11.1928758"><ele>214.66666666666669</ele><time>2026-03-29T09:58:12.1Z</time></trkpt><trkpt lat="45.4782556" lon="11.192786"><ele>214.33333333333334</ele><time>2026-03-29T09:58:13.091Z</time></trkpt><trkpt lat="45.4782408" lon="11.1926165"><ele>214.0</ele><time>2026-03-29T09:58:15.086Z</time></trkpt><trkpt lat="45.4782481" lon="11.192527"><ele>213.66666666666669</ele><time>2026-03-29T09:58:16.138Z</time></trkpt><trkpt lat="45.4782496" lon="11.1923677"><ele>213.33333333333334</ele><time>2026-03-29T09:58:18.144Z</time></trkpt><trkpt lat="45.4782534" lon="11.1922683"><ele>213.0</ele><time>2026-03-29T09:58:19.146Z</time></trkpt><trkpt lat="45.4782705" lon="11.1921802"><ele>211.83333333333334</ele><time>2026-03-29T09:58:20.149Z</time></trkpt><trkpt lat="45.4782798" lon="11.1920764"><ele>210.66666666666669</ele><time>2026-03-29T09:58:21.135Z</time></trkpt><trkpt lat="45.4783258" lon="11.1918888"><ele>209.5</ele><time>2026-03-29T09:58:23.127Z</time></trkpt><trkpt lat="45.4783726" lon="11.1918049"><ele>208.33333333333334</ele><time>2026-03-29T09:58:24.12Z</time></trkpt><trkpt lat="45.4784087" lon="11.1917168"><ele>207.16666666666669</ele><time>2026-03-29T09:58:25.118Z</time></trkpt><trkpt lat="45.4784368" lon="11.1916205"><ele>206.0</ele><time>2026-03-29T09:58:26.108Z</time></trkpt><trkpt lat="45.4784597" lon="11.1915349"><ele>204.42857142857142</ele><time>2026-03-29T09:58:27.121Z</time></trkpt><trkpt lat="45.4784963" lon="11.1914548"><ele>202.85714285714286</ele><time>2026-03-29T09:58:28.085Z</time></trkpt><trkpt lat="45.4785383" lon="11.1913409"><ele>201.28571428571428</ele><time>2026-03-29T09:58:29.092Z</time></trkpt><trkpt lat="45.4785779" lon="11.1912492"><ele>199.71428571428572</ele><time>2026-03-29T09:58:30.116Z</time></trkpt><trkpt lat="45.4786262" lon="11.1911654"><ele>198.14285714285714</ele><time>2026-03-29T09:58:31.131Z</time></trkpt><trkpt lat="45.4786464" lon="11.1910757"><ele>196.57142857142856</ele><time>2026-03-29T09:58:32.131Z</time></trkpt><trkpt lat="45.4786753" lon="11.1909907"><ele>195.0</ele><time>2026-03-29T09:58:33.081Z</time></trkpt><trkpt lat="45.4787114" lon="11.1908966"><ele>195.0</ele><time>2026-03-29T09:58:34.119Z</time></trkpt><trkpt lat="45.4787464" lon="11.1908086"><ele>195.0</ele><time>2026-03-29T09:58:35.095Z</time></trkpt><trkpt lat="45.4787753" lon="11.1907065"><ele>195.0</ele><time>2026-03-29T09:58:36.101Z</time></trkpt><trkpt lat="45.4788106" lon="11.1906064"><ele>195.0</ele><time>2026-03-29T09:58:37.12Z</time></trkpt><trkpt lat="45.478838" lon="11.1905076"><ele>195.0</ele><time>2026-03-29T09:58:38.129Z</time></trkpt><trkpt lat="45.478878" lon="11.1904137"><ele>195.0</ele><time>2026-03-29T09:58:39.14Z</time></trkpt><trkpt lat="45.4789146" lon="11.1903235"><ele>196.28571428571428</ele><time>2026-03-29T09:58:40.14Z</time></trkpt><trkpt lat="45.4789359" lon="11.1902254"><ele>197.57142857142856</ele><time>2026-03-29T09:58:41.128Z</time></trkpt><trkpt lat="45.4789475" lon="11.19013"><ele>198.85714285714286</ele><time>2026-03-29T09:58:42.112Z</time></trkpt><trkpt lat="45.4789494" lon="11.190035"><ele>200.14285714285714</ele><time>2026-03-29T09:58:43.094Z</time></trkpt><trkpt lat="45.4789786" lon="11.1899386"><ele>201.42857142857144</ele><time>2026-03-29T09:58:44.099Z</time></trkpt><trkpt lat="45.4789938" lon="11.1898335"><ele>202.71428571428572</ele><time>2026-03-29T09:58:45.14Z</time></trkpt><trkpt lat="45.4790086" lon="11.1897311"><ele>204.0</ele><time>2026-03-29T09:58:46.147Z</time></trkpt><trkpt lat="45.4790138" lon="11.1896312"><ele>204.0</ele><time>2026-03-29T09:58:47.139Z</time></trkpt><trkpt lat="45.479033" lon="11.1895405"><ele>204.0</ele><time>2026-03-29T09:58:48.14Z</time></trkpt><trkpt lat="45.4790483" lon="11.1894358"><ele>204.0</ele><time>2026-03-29T09:58:49.138Z</time></trkpt><trkpt lat="45.4790371" lon="11.1893295"><ele>204.0</ele><time>2026-03-29T09:58:50.093Z</time></trkpt><trkpt lat="45.4790709" lon="11.1891048"><ele>204.0</ele><time>2026-03-29T09:58:52.125Z</time></trkpt><trkpt lat="45.4790964" lon="11.188993"><ele>203.33333333333334</ele><time>2026-03-29T09:58:53.131Z</time></trkpt><trkpt lat="45.4791319" lon="11.1888805"><ele>202.66666666666669</ele><time>2026-03-29T09:58:54.139Z</time></trkpt><trkpt lat="45.4791445" lon="11.1887861"><ele>202.0</ele><time>2026-03-29T09:58:55.164Z</time></trkpt><trkpt lat="45.479123" lon="11.1886379"><ele>201.33333333333334</ele><time>2026-03-29T09:58:57.128Z</time></trkpt><trkpt lat="45.4791236" lon="11.1885478"><ele>200.66666666666669</ele><time>2026-03-29T09:58:58.13Z</time></trkpt><trkpt lat="45.4791611" lon="11.1884175"><ele>200.0</ele><time>2026-03-29T09:59:00.131Z</time></trkpt><trkpt lat="45.4791886" lon="11.1882731"><ele>199.0</ele><time>2026-03-29T09:59:02.134Z</time></trkpt><trkpt lat="45.4792604" lon="11.1881548"><ele>198.0</ele><time>2026-03-29T09:59:04.131Z</time></trkpt><trkpt lat="45.4792625" lon="11.1880412"><ele>197.0</ele><time>2026-03-29T09:59:06.101Z</time></trkpt><trkpt lat="45.4790616" lon="11.1880275"><ele>196.0</ele><time>2026-03-29T09:59:08.142Z</time></trkpt><trkpt lat="45.4789774" lon="11.1878987"><ele>195.99999999999997</ele><time>2026-03-29T09:59:10.113Z</time></trkpt><trkpt lat="45.4789289" lon="11.1878031"><ele>196.0</ele><time>2026-03-29T09:59:11.16Z</time></trkpt><trkpt lat="45.4788753" lon="11.1877237"><ele>196.0</ele><time>2026-03-29T09:59:12.144Z</time></trkpt><trkpt lat="45.4788243" lon="11.1876577"><ele>196.0</ele><time>2026-03-29T09:59:13.095Z</time></trkpt><trkpt lat="45.4787691" lon="11.1875622"><ele>195.99999999999997</ele><time>2026-03-29T09:59:14.109Z</time></trkpt><trkpt lat="45.4787606" lon="11.1874663"><ele>196.0</ele><time>2026-03-29T09:59:15.136Z</time></trkpt><trkpt lat="45.4787453" lon="11.1873732"><ele>195.49999999999997</ele><time>2026-03-29T09:59:16.143Z</time></trkpt><trkpt lat="45.4787264" lon="11.1872811"><ele>195.0</ele><time>2026-03-29T09:59:17.148Z</time></trkpt><trkpt lat="45.4787023" lon="11.1871905"><ele>194.5</ele><time>2026-03-29T09:59:18.142Z</time></trkpt><trkpt lat="45.4786783" lon="11.1871002"><ele>194.0</ele><time>2026-03-29T09:59:19.144Z</time></trkpt><trkpt lat="45.4786658" lon="11.1870092"><ele>193.49999999999997</ele><time>2026-03-29T09:59:20.111Z</time></trkpt><trkpt lat="45.478648" lon="11.1869224"><ele>193.0</ele><time>2026-03-29T09:59:21.111Z</time></trkpt><trkpt lat="45.4786076" lon="11.1867633"><ele>193.0</ele><time>2026-03-29T09:59:23.114Z</time></trkpt><trkpt lat="45.478543" lon="11.1865406"><ele>193.0</ele><time>2026-03-29T09:59:26.108Z</time></trkpt><trkpt lat="45.4784816" lon="11.1864925"><ele>193.0</ele><time>2026-03-29T09:59:27.11Z</time></trkpt><trkpt lat="45.4783901" lon="11.1863989"><ele>193.0</ele><time>2026-03-29T09:59:29.131Z</time></trkpt><trkpt lat="45.4783198" lon="11.1863581"><ele>193.0</ele><time>2026-03-29T09:59:30.101Z</time></trkpt><trkpt lat="45.4782467" lon="11.1863127"><ele>193.0</ele><time>2026-03-29T09:59:31.124Z</time></trkpt><trkpt lat="45.47818" lon="11.1862697"><ele>193.0</ele><time>2026-03-29T09:59:32.121Z</time></trkpt><trkpt lat="45.4780735" lon="11.1861663"><ele>193.0</ele><time>2026-03-29T09:59:34.098Z</time></trkpt><trkpt lat="45.4779661" lon="11.1860679"><ele>193.0</ele><time>2026-03-29T09:59:36.204Z</time></trkpt><trkpt lat="45.4778754" lon="11.1859718"><ele>193.0</ele><time>2026-03-29T09:59:38.094Z</time></trkpt><trkpt lat="45.4777882" lon="11.1858689"><ele>192.25</ele><time>2026-03-29T09:59:40.129Z</time></trkpt><trkpt lat="45.4777118" lon="11.1857624"><ele>191.5</ele><time>2026-03-29T09:59:42.132Z</time></trkpt><trkpt lat="45.4776305" lon="11.185648"><ele>190.75</ele><time>2026-03-29T09:59:44.105Z</time></trkpt><trkpt lat="45.477551" lon="11.1855297"><ele>190.0</ele><time>2026-03-29T09:59:46.14Z</time></trkpt><trkpt lat="45.4774592" lon="11.1854078"><ele>190.0</ele><time>2026-03-29T09:59:48.141Z</time></trkpt><trkpt lat="45.477371" lon="11.1853009"><ele>190.0</ele><time>2026-03-29T09:59:50.131Z</time></trkpt><trkpt lat="45.4772985" lon="11.1851786"><ele>190.0</ele><time>2026-03-29T09:59:52.114Z</time></trkpt><trkpt lat="45.4772159" lon="11.18505"><ele>190.0</ele><time>2026-03-29T09:59:54.111Z</time></trkpt><trkpt lat="45.4771249" lon="11.1849376"><ele>189.8</ele><time>2026-03-29T09:59:56.124Z</time></trkpt><trkpt lat="45.4770851" lon="11.1848671"><ele>189.6</ele><time>2026-03-29T09:59:57.13Z</time></trkpt><trkpt lat="45.4769902" lon="11.1847358"><ele>189.39999999999998</ele><time>2026-03-29T09:59:59.124Z</time></trkpt><trkpt lat="45.4768911" lon="11.1846183"><ele>189.2</ele><time>2026-03-29T10:00:01.144Z</time></trkpt><trkpt lat="45.4768233" lon="11.1845467"><ele>189.0</ele><time>2026-03-29T10:00:02.115Z</time></trkpt><trkpt lat="45.476767" lon="11.1844799"><ele>189.0</ele><time>2026-03-29T10:00:03.088Z</time></trkpt><trkpt lat="45.4767168" lon="11.1844238"><ele>189.0</ele><time>2026-03-29T10:00:04.123Z</time></trkpt><trkpt lat="45.4766516" lon="11.1843758"><ele>189.0</ele><time>2026-03-29T10:00:05.124Z</time></trkpt><trkpt lat="45.4765799" lon="11.1843387"><ele>189.0</ele><time>2026-03-29T10:00:06.132Z</time></trkpt><trkpt lat="45.4765251" lon="11.1842904"><ele>189.0</ele><time>2026-03-29T10:00:07.093Z</time></trkpt><trkpt lat="45.4764652" lon="11.1842608"><ele>189.0</ele><time>2026-03-29T10:00:08.086Z</time></trkpt><trkpt lat="45.4764012" lon="11.1842262"><ele>189.0</ele><time>2026-03-29T10:00:09.145Z</time></trkpt><trkpt lat="45.4763298" lon="11.1842106"><ele>188.39999999999998</ele><time>2026-03-29T10:00:10.149Z</time></trkpt><trkpt lat="45.4762204" lon="11.18416"><ele>187.8</ele><time>2026-03-29T10:00:12.125Z</time></trkpt><trkpt lat="45.4761526" lon="11.1841272"><ele>187.2</ele><time>2026-03-29T10:00:13.088Z</time></trkpt><trkpt lat="45.4760798" lon="11.1841198"><ele>186.60000000000002</ele><time>2026-03-29T10:00:14.096Z</time></trkpt><trkpt lat="45.475972" lon="11.1840533"><ele>186.0</ele><time>2026-03-29T10:00:16.124Z</time></trkpt><trkpt lat="45.4758934" lon="11.1840201"><ele>186.20000000000002</ele><time>2026-03-29T10:00:17.15Z</time></trkpt><trkpt lat="45.4757951" lon="11.1839501"><ele>186.4</ele><time>2026-03-29T10:00:19.144Z</time></trkpt><trkpt lat="45.4756941" lon="11.1839034"><ele>186.6</ele><time>2026-03-29T10:00:21.09Z</time></trkpt><trkpt lat="45.4756003" lon="11.1838656"><ele>186.8</ele><time>2026-03-29T10:00:23.094Z</time></trkpt><trkpt lat="45.4754911" lon="11.1838091"><ele>187.0</ele><time>2026-03-29T10:00:25.088Z</time></trkpt><trkpt lat="45.4753811" lon="11.1837678"><ele>186.6</ele><time>2026-03-29T10:00:27.095Z</time></trkpt><trkpt lat="45.4753158" lon="11.1837432"><ele>186.2</ele><time>2026-03-29T10:00:28.094Z</time></trkpt><trkpt lat="45.4752552" lon="11.1837103"><ele>185.8</ele><time>2026-03-29T10:00:29.089Z</time></trkpt><trkpt lat="45.4751688" lon="11.1836973"><ele>185.4</ele><time>2026-03-29T10:00:30.134Z</time></trkpt><trkpt lat="45.4750367" lon="11.1836408"><ele>185.0</ele><time>2026-03-29T10:00:32.149Z</time></trkpt><trkpt lat="45.4749338" lon="11.1835768"><ele>185.0</ele><time>2026-03-29T10:00:34.113Z</time></trkpt><trkpt lat="45.4748365" lon="11.1834798"><ele>185.0</ele><time>2026-03-29T10:00:36.098Z</time></trkpt><trkpt lat="45.4747887" lon="11.1834197"><ele>185.0</ele><time>2026-03-29T10:00:37.109Z</time></trkpt><trkpt lat="45.4747204" lon="11.183309"><ele>185.0</ele><time>2026-03-29T10:00:39.146Z</time></trkpt><trkpt lat="45.4746146" lon="11.1831821"><ele>185.0</ele><time>2026-03-29T10:00:41.144Z</time></trkpt><trkpt lat="45.4744958" lon="11.1830751"><ele>184.5</ele><time>2026-03-29T10:00:43.106Z</time></trkpt><trkpt lat="45.4743964" lon="11.1829716"><ele>184.0</ele><time>2026-03-29T10:00:45.157Z</time></trkpt><trkpt lat="45.4742952" lon="11.1828641"><ele>183.5</ele><time>2026-03-29T10:00:47.175Z</time></trkpt><trkpt lat="45.4741975" lon="11.1827629"><ele>183.0</ele><time>2026-03-29T10:00:49.155Z</time></trkpt><trkpt lat="45.4740986" lon="11.1826595"><ele>183.0</ele><time>2026-03-29T10:00:51.105Z</time></trkpt><trkpt lat="45.474007" lon="11.1825569"><ele>183.0</ele><time>2026-03-29T10:00:53.126Z</time></trkpt><trkpt lat="45.4739525" lon="11.1825037"><ele>183.0</ele><time>2026-03-29T10:00:54.097Z</time></trkpt><trkpt lat="45.473837" lon="11.1824113"><ele>183.0</ele><time>2026-03-29T10:00:56.12Z</time></trkpt><trkpt lat="45.4737713" lon="11.1823616"><ele>183.0</ele><time>2026-03-29T10:00:57.108Z</time></trkpt><trkpt lat="45.4736714" lon="11.1822645"><ele>182.83333333333334</ele><time>2026-03-29T10:00:59.142Z</time></trkpt><trkpt lat="45.4736152" lon="11.1822064"><ele>182.66666666666666</ele><time>2026-03-29T10:01:00.137Z</time></trkpt><trkpt lat="45.4735554" lon="11.1821659"><ele>182.5</ele><time>2026-03-29T10:01:01.101Z</time></trkpt><trkpt lat="45.4734891" lon="11.1821137"><ele>182.33333333333331</ele><time>2026-03-29T10:01:02.128Z</time></trkpt><trkpt lat="45.4733958" lon="11.1820185"><ele>182.16666666666666</ele><time>2026-03-29T10:01:04.145Z</time></trkpt><trkpt lat="45.4733448" lon="11.1819632"><ele>182.0</ele><time>2026-03-29T10:01:05.092Z</time></trkpt><trkpt lat="45.4732828" lon="11.1819109"><ele>182.0</ele><time>2026-03-29T10:01:06.124Z</time></trkpt><trkpt lat="45.4731979" lon="11.1817951"><ele>182.0</ele><time>2026-03-29T10:01:08.096Z</time></trkpt><trkpt lat="45.4731003" lon="11.1816814"><ele>182.0</ele><time>2026-03-29T10:01:10.155Z</time></trkpt><trkpt lat="45.4730154" lon="11.1816022"><ele>182.0</ele><time>2026-03-29T10:01:12.128Z</time></trkpt><trkpt lat="45.472941" lon="11.1814895"><ele>181.66666666666666</ele><time>2026-03-29T10:01:14.09Z</time></trkpt><trkpt lat="45.4728962" lon="11.1813604"><ele>181.33333333333331</ele><time>2026-03-29T10:01:16.097Z</time></trkpt><trkpt lat="45.4728698" lon="11.1812541"><ele>181.0</ele><time>2026-03-29T10:01:18.09Z</time></trkpt><trkpt lat="45.4728329" lon="11.1811749"><ele>180.66666666666666</ele><time>2026-03-29T10:01:20.095Z</time></trkpt><trkpt lat="45.4727663" lon="11.1811031"><ele>180.33333333333334</ele><time>2026-03-29T10:01:22.088Z</time></trkpt><trkpt lat="45.4727177" lon="11.1810238"><ele>180.0</ele><time>2026-03-29T10:01:24.092Z</time></trkpt><trkpt lat="45.4726458" lon="11.1809781"><ele>180.0</ele><time>2026-03-29T10:01:26.107Z</time></trkpt><trkpt lat="45.4725706" lon="11.1809515"><ele>180.0</ele><time>2026-03-29T10:01:28.152Z</time></trkpt><trkpt lat="45.472509" lon="11.180927"><ele>180.0</ele><time>2026-03-29T10:01:30.112Z</time></trkpt><trkpt lat="45.4724296" lon="11.1808809"><ele>180.0</ele><time>2026-03-29T10:01:32.149Z</time></trkpt><trkpt lat="45.4723642" lon="11.180888"><ele>180.0</ele><time>2026-03-29T10:01:34.139Z</time></trkpt><trkpt lat="45.472305" lon="11.1809204"><ele>180.0</ele><time>2026-03-29T10:01:36.083Z</time></trkpt><trkpt lat="45.4722547" lon="11.1809904"><ele>180.0</ele><time>2026-03-29T10:01:38.16Z</time></trkpt><trkpt lat="45.472284" lon="11.181071"><ele>180.0</ele><time>2026-03-29T10:01:42.151Z</time></trkpt><trkpt lat="45.4723527" lon="11.1810567"><ele>180.0</ele><time>2026-03-29T10:02:01.094Z</time></trkpt><trkpt lat="45.4724992" lon="11.1810509"><ele>180.0</ele><time>2026-03-29T10:02:48.264Z</time></trkpt><trkpt lat="45.4724234" lon="11.181064"><ele>180.0</ele><time>2026-03-29T10:03:00.128Z</time></trkpt><trkpt lat="45.4723499" lon="11.1810119"><ele>180.0</ele><time>2026-03-29T10:03:25.126Z</time></trkpt><trkpt lat="45.4722839" lon="11.1809727"><ele>180.0</ele><time>2026-03-29T10:03:28.093Z</time></trkpt><trkpt lat="45.4722155" lon="11.1809206"><ele>180.0</ele><time>2026-03-29T10:03:32.165Z</time></trkpt><trkpt lat="45.4721417" lon="11.1808972"><ele>180.0</ele><time>2026-03-29T10:03:35.088Z</time></trkpt><trkpt lat="45.4720645" lon="11.1808989"><ele>180.0</ele><time>2026-03-29T10:03:38.136Z</time></trkpt><trkpt lat="45.4719909" lon="11.1808599"><ele>180.0</ele><time>2026-03-29T10:03:42.099Z</time></trkpt><trkpt lat="45.4719577" lon="11.18075"><ele>180.0</ele><time>2026-03-29T10:03:45.165Z</time></trkpt><trkpt lat="45.471876" lon="11.1807182"><ele>180.0</ele><time>2026-03-29T10:03:48.095Z</time></trkpt><trkpt lat="45.4718055" lon="11.1806877"><ele>179.66666666666666</ele><time>2026-03-29T10:03:50.096Z</time></trkpt><trkpt lat="45.4717398" lon="11.1806542"><ele>179.33333333333334</ele><time>2026-03-29T10:03:52.095Z</time></trkpt><trkpt lat="45.4716626" lon="11.1805865"><ele>179.0</ele><time>2026-03-29T10:03:54.094Z</time></trkpt><trkpt lat="45.4716297" lon="11.1804667"><ele>178.66666666666669</ele><time>2026-03-29T10:03:56.141Z</time></trkpt><trkpt lat="45.47162" lon="11.1803415"><ele>178.33333333333334</ele><time>2026-03-29T10:03:58.146Z</time></trkpt><trkpt lat="45.4716314" lon="11.18022"><ele>178.0</ele><time>2026-03-29T10:04:00.092Z</time></trkpt><trkpt lat="45.4716466" lon="11.1800462"><ele>178.0</ele><time>2026-03-29T10:04:03.118Z</time></trkpt><trkpt lat="45.471638" lon="11.1799223"><ele>178.0</ele><time>2026-03-29T10:04:05.094Z</time></trkpt><trkpt lat="45.4716208" lon="11.1798105"><ele>178.0</ele><time>2026-03-29T10:04:07.115Z</time></trkpt><trkpt lat="45.4715924" lon="11.179699"><ele>178.0</ele><time>2026-03-29T10:04:11.099Z</time></trkpt><trkpt lat="45.4715425" lon="11.1796268"><ele>178.0</ele><time>2026-03-29T10:04:13.1Z</time></trkpt><trkpt lat="45.4714698" lon="11.1795492"><ele>178.0</ele><time>2026-03-29T10:04:15.091Z</time></trkpt><trkpt lat="45.4713985" lon="11.1795361"><ele>177.83333333333334</ele><time>2026-03-29T10:04:17.136Z</time></trkpt><trkpt lat="45.4713187" lon="11.1795282"><ele>177.66666666666669</ele><time>2026-03-29T10:04:19.099Z</time></trkpt><trkpt lat="45.4712351" lon="11.1795227"><ele>177.5</ele><time>2026-03-29T10:04:21.087Z</time></trkpt><trkpt lat="45.4711416" lon="11.1795107"><ele>177.33333333333334</ele><time>2026-03-29T10:04:23.138Z</time></trkpt><trkpt lat="45.4710631" lon="11.1795205"><ele>177.16666666666666</ele><time>2026-03-29T10:04:25.101Z</time></trkpt><trkpt lat="45.4709943" lon="11.1794881"><ele>177.0</ele><time>2026-03-29T10:04:27.122Z</time></trkpt><trkpt lat="45.4709227" lon="11.1794669"><ele>176.85714285714286</ele><time>2026-03-29T10:04:29.154Z</time></trkpt><trkpt lat="45.4708786" lon="11.1793576"><ele>176.7142857142857</ele><time>2026-03-29T10:04:33.123Z</time></trkpt><trkpt lat="45.4708758" lon="11.1792542"><ele>176.57142857142856</ele><time>2026-03-29T10:04:35.087Z</time></trkpt><trkpt lat="45.4708834" lon="11.1791584"><ele>176.42857142857144</ele><time>2026-03-29T10:04:37.14Z</time></trkpt><trkpt lat="45.4708909" lon="11.1790596"><ele>176.28571428571428</ele><time>2026-03-29T10:04:39.14Z</time></trkpt><trkpt lat="45.4708997" lon="11.1789639"><ele>176.14285714285714</ele><time>2026-03-29T10:04:41.086Z</time></trkpt><trkpt lat="45.4709064" lon="11.1788691"><ele>176.0</ele><time>2026-03-29T10:04:43.104Z</time></trkpt><trkpt lat="45.470901" lon="11.1787794"><ele>175.83333333333331</ele><time>2026-03-29T10:04:45.097Z</time></trkpt><trkpt lat="45.4709048" lon="11.1786859"><ele>175.66666666666666</ele><time>2026-03-29T10:04:47.121Z</time></trkpt><trkpt lat="45.4709081" lon="11.1785834"><ele>175.5</ele><time>2026-03-29T10:04:49.088Z</time></trkpt><trkpt lat="45.4708419" lon="11.1785111"><ele>175.33333333333334</ele><time>2026-03-29T10:04:52.09Z</time></trkpt><trkpt lat="45.470745" lon="11.1785065"><ele>175.16666666666669</ele><time>2026-03-29T10:04:53.088Z</time></trkpt><trkpt lat="45.4706817" lon="11.1784805"><ele>175.0</ele><time>2026-03-29T10:04:55.101Z</time></trkpt><trkpt lat="45.4705948" lon="11.1784547"><ele>175.0</ele><time>2026-03-29T10:04:57.101Z</time></trkpt><trkpt lat="45.4705084" lon="11.1784393"><ele>175.0</ele><time>2026-03-29T10:04:59.097Z</time></trkpt><trkpt lat="45.4704205" lon="11.178456"><ele>175.0</ele><time>2026-03-29T10:05:01.103Z</time></trkpt><trkpt lat="45.470342" lon="11.1784118"><ele>175.0</ele><time>2026-03-29T10:05:05.175Z</time></trkpt><trkpt lat="45.4702684" lon="11.1783779"><ele>175.0</ele><time>2026-03-29T10:05:07.096Z</time></trkpt><trkpt lat="45.4702021" lon="11.1783855"><ele>175.0</ele><time>2026-03-29T10:05:09.158Z</time></trkpt><trkpt lat="45.4701204" lon="11.1783715"><ele>174.5</ele><time>2026-03-29T10:05:11.095Z</time></trkpt><trkpt lat="45.4700442" lon="11.1783335"><ele>174.0</ele><time>2026-03-29T10:05:13.102Z</time></trkpt><trkpt lat="45.4699616" lon="11.1783091"><ele>173.5</ele><time>2026-03-29T10:05:15.161Z</time></trkpt><trkpt lat="45.4698896" lon="11.178277"><ele>173.0</ele><time>2026-03-29T10:05:18.132Z</time></trkpt><trkpt lat="45.4698139" lon="11.1782414"><ele>172.5</ele><time>2026-03-29T10:05:21.096Z</time></trkpt><trkpt lat="45.4697249" lon="11.1782007"><ele>172.0</ele><time>2026-03-29T10:05:23.133Z</time></trkpt><trkpt lat="45.4696296" lon="11.1781809"><ele>171.6</ele><time>2026-03-29T10:05:25.144Z</time></trkpt><trkpt lat="45.4695317" lon="11.1781668"><ele>171.2</ele><time>2026-03-29T10:05:27.092Z</time></trkpt><trkpt lat="45.4694338" lon="11.178151"><ele>170.8</ele><time>2026-03-29T10:05:29.163Z</time></trkpt><trkpt lat="45.4693379" lon="11.1780922"><ele>170.4</ele><time>2026-03-29T10:05:31.149Z</time></trkpt><trkpt lat="45.4692461" lon="11.1780922"><ele>170.0</ele><time>2026-03-29T10:05:33.097Z</time></trkpt><trkpt lat="45.4691429" lon="11.1780877"><ele>170.0</ele><time>2026-03-29T10:05:35.09Z</time></trkpt><trkpt lat="45.4690571" lon="11.1780615"><ele>170.0</ele><time>2026-03-29T10:05:37.099Z</time></trkpt><trkpt lat="45.4689519" lon="11.1780347"><ele>170.0</ele><time>2026-03-29T10:05:39.087Z</time></trkpt><trkpt lat="45.4688672" lon="11.1780257"><ele>170.0</ele><time>2026-03-29T10:05:41.093Z</time></trkpt><trkpt lat="45.4687771" lon="11.1780118"><ele>170.0</ele><time>2026-03-29T10:05:43.101Z</time></trkpt><trkpt lat="45.4686912" lon="11.1780311"><ele>167.0</ele><time>2026-03-29T10:05:45.09Z</time></trkpt><trkpt lat="45.4686062" lon="11.1780383"><ele>167.0</ele><time>2026-03-29T10:05:47.09Z</time></trkpt><trkpt lat="45.4685793" lon="11.177932"><ele>167.0</ele><time>2026-03-29T10:05:51.151Z</time></trkpt><trkpt lat="45.4685828" lon="11.1778203"><ele>167.0</ele><time>2026-03-29T10:05:54.091Z</time></trkpt><trkpt lat="45.4684934" lon="11.1778519"><ele>167.0</ele><time>2026-03-29T10:05:59.091Z</time></trkpt></trkseg></trk></gpx>